<?xml version='1.0' encoding='UTF-8'?><gpx version="1.1" creator="JPX - https://github.com/jenetics/jpx" xmlns="http://www.topografix.com/GPX/1/1"><trk><trkseg><trkpt lat="55.70646471400357" lon="12.59673591526283"><ele>5.0</ele><time>2026-04-27T08:59:57.006Z</time></trkpt><trkpt lat="55.70656919293384" lon="12.596636721844279"><ele>5.0</ele><time>2026-04-27T09:00:15.002Z</time></trkpt><trkpt lat="55.70650786268224" lon="12.59657178355922"><ele>5.0</ele><time>2026-04-27T09:00:25.001Z</time></trkpt><trkpt lat="55.70652223076963" lon="12.596455861166756"><ele>5.0</ele><time>2026-04-27T09:00:29Z</time></trkpt><trkpt lat="55.70650301690981" lon="12.596315153255231"><ele>5.0</ele><time>2026-04-27T09:00:32Z</time></trkpt><trkpt lat="55.70648077136983" lon="12.59620138378929"><ele>5.0</ele><time>2026-04-27T09:00:34Z</time></trkpt><trkpt lat="55.70647797588256" lon="12.596083668781766"><ele>4.333333333333334</ele><time>2026-04-27T09:00:37Z</time></trkpt><trkpt lat="55.70646467288937" lon="12.595928075481307"><ele>3.666666666666667</ele><time>2026-04-27T09:00:40Z</time></trkpt><trkpt lat="55.7064475915601" lon="12.595781529685418"><ele>3.0</ele><time>2026-04-27T09:00:43Z</time></trkpt><trkpt lat="55.70643780356836" lon="12.59559475803709"><ele>2.3333333333333335</ele><time>2026-04-27T09:00:47Z</time></trkpt><trkpt lat="55.7064388721947" lon="12.595474527938752"><ele>1.6666666666666665</ele><time>2026-04-27T09:00:50Z</time></trkpt><trkpt lat="55.70642166690182" lon="12.595327278008046"><ele>1.0</ele><time>2026-04-27T09:00:53Z</time></trkpt><trkpt lat="55.7064245174691" lon="12.595199908329903"><ele>0.9999999999999999</ele><time>2026-04-27T09:00:56Z</time></trkpt><trkpt lat="55.706369593362346" lon="12.595089818157025"><ele>1.0</ele><time>2026-04-27T09:00:59Z</time></trkpt><trkpt lat="55.70634795573763" lon="12.594977703734024"><ele>1.0</ele><time>2026-04-27T09:01:01Z</time></trkpt><trkpt lat="55.70628651791562" lon="12.594832416591181"><ele>1.0</ele><time>2026-04-27T09:01:04Z</time></trkpt><trkpt lat="55.706235492838054" lon="12.59470377466263"><ele>0.9999999999999999</ele><time>2026-04-27T09:01:06Z</time></trkpt><trkpt lat="55.70624694125282" lon="12.59458143827694"><ele>1.0</ele><time>2026-04-27T09:01:08Z</time></trkpt><trkpt lat="55.70623681283317" lon="12.594433984011623"><ele>1.3333333333333333</ele><time>2026-04-27T09:01:11Z</time></trkpt><trkpt lat="55.70623403302661" lon="12.594295999097533"><ele>1.6666666666666665</ele><time>2026-04-27T09:01:14Z</time></trkpt><trkpt lat="55.70621862367117" lon="12.594151695357484"><ele>2.0</ele><time>2026-04-27T09:01:17Z</time></trkpt><trkpt lat="55.70625317203584" lon="12.594014616243062"><ele>2.3333333333333335</ele><time>2026-04-27T09:01:20Z</time></trkpt><trkpt lat="55.70624739206352" lon="12.593878876436285"><ele>2.6666666666666665</ele><time>2026-04-27T09:01:23Z</time></trkpt><trkpt lat="55.70624400510601" lon="12.593728587870817"><ele>3.0</ele><time>2026-04-27T09:01:26Z</time></trkpt><trkpt lat="55.70621919858264" lon="12.593587560172926"><ele>3.0</ele><time>2026-04-27T09:01:29Z</time></trkpt><trkpt lat="55.7062114647301" lon="12.593469297926397"><ele>3.0</ele><time>2026-04-27T09:01:32Z</time></trkpt><trkpt lat="55.70619485420622" lon="12.593357030008729"><ele>3.0</ele><time>2026-04-27T09:01:34Z</time></trkpt><trkpt lat="55.706186036335716" lon="12.593186627853774"><ele>3.0</ele><time>2026-04-27T09:01:38Z</time></trkpt><trkpt lat="55.706163083021906" lon="12.5930388876531"><ele>3.0</ele><time>2026-04-27T09:01:41Z</time></trkpt><trkpt lat="55.70616799026112" lon="12.592893863647438"><ele>3.0</ele><time>2026-04-27T09:01:45Z</time></trkpt><trkpt lat="55.706138616523376" lon="12.592773428348274"><ele>2.9999999999999996</ele><time>2026-04-27T09:01:48Z</time></trkpt><trkpt lat="55.70611647904868" lon="12.592666612960857"><ele>3.0</ele><time>2026-04-27T09:01:50Z</time></trkpt><trkpt lat="55.70610830792991" lon="12.592539191419684"><ele>3.0</ele><time>2026-04-27T09:01:54Z</time></trkpt><trkpt lat="55.70611009382686" lon="12.59241836105513"><ele>3.0</ele><time>2026-04-27T09:03:32Z</time></trkpt><trkpt lat="55.706103485184904" lon="12.592283695843966"><ele>3.0</ele><time>2026-04-27T09:03:36Z</time></trkpt><trkpt lat="55.70606824523091" lon="12.5921667226557"><ele>2.9999999999999996</ele><time>2026-04-27T09:03:39Z</time></trkpt><trkpt lat="55.706070941697625" lon="12.592008863034902"><ele>3.0</ele><time>2026-04-27T09:03:43Z</time></trkpt><trkpt lat="55.70608443066925" lon="12.591897503506289"><ele>2.8333333333333335</ele><time>2026-04-27T09:03:56Z</time></trkpt><trkpt lat="55.706073559164494" lon="12.591786302991544"><ele>2.6666666666666665</ele><time>2026-04-27T09:03:59Z</time></trkpt><trkpt lat="55.70609577404581" lon="12.591645941434638"><ele>2.5</ele><time>2026-04-27T09:04:03Z</time></trkpt><trkpt lat="55.70614944110181" lon="12.59157207408645"><ele>2.333333333333333</ele><time>2026-04-27T09:04:07Z</time></trkpt><trkpt lat="55.70622925705697" lon="12.59153288062417"><ele>2.1666666666666665</ele><time>2026-04-27T09:04:10Z</time></trkpt><trkpt lat="55.70631353726745" lon="12.59151069196469"><ele>2.0</ele><time>2026-04-27T09:04:13Z</time></trkpt><trkpt lat="55.706393842760434" lon="12.591486882491235"><ele>2.0</ele><time>2026-04-27T09:04:16Z</time></trkpt><trkpt lat="55.70656241707292" lon="12.591454566800579"><ele>2.0</ele><time>2026-04-27T09:04:22Z</time></trkpt><trkpt lat="55.706650707435244" lon="12.591451085442737"><ele>2.0</ele><time>2026-04-27T09:04:25Z</time></trkpt><trkpt lat="55.70671765663079" lon="12.59142619000554"><ele>2.0</ele><time>2026-04-27T09:04:27Z</time></trkpt><trkpt lat="55.706815963326335" lon="12.591417055986291"><ele>2.0</ele><time>2026-04-27T09:04:30Z</time></trkpt><trkpt lat="55.70687720798012" lon="12.591387327557644"><ele>2.1666666666666665</ele><time>2026-04-27T09:04:32Z</time></trkpt><trkpt lat="55.70696057231057" lon="12.591346622659849"><ele>2.333333333333333</ele><time>2026-04-27T09:04:35Z</time></trkpt><trkpt lat="55.70703598043229" lon="12.591314986660995"><ele>2.5</ele><time>2026-04-27T09:04:38Z</time></trkpt><trkpt lat="55.7071357485223" lon="12.59129706854775"><ele>2.6666666666666665</ele><time>2026-04-27T09:05:15Z</time></trkpt><trkpt lat="55.70720358347306" lon="12.591338989911197"><ele>2.8333333333333335</ele><time>2026-04-27T09:05:19Z</time></trkpt><trkpt lat="55.707239072689596" lon="12.59147259624086"><ele>3.0</ele><time>2026-04-27T09:05:22Z</time></trkpt><trkpt lat="55.70726823023491" lon="12.591616303231365"><ele>3.0</ele><time>2026-04-27T09:05:25Z</time></trkpt><trkpt lat="55.70728349475217" lon="12.591725182954248"><ele>3.0</ele><time>2026-04-27T09:05:27Z</time></trkpt><trkpt lat="55.7073017151559" lon="12.591839101036847"><ele>3.0</ele><time>2026-04-27T09:05:29Z</time></trkpt><trkpt lat="55.707326954804415" lon="12.591990834236753"><ele>3.0</ele><time>2026-04-27T09:05:32Z</time></trkpt><trkpt lat="55.707347250867585" lon="12.59213624987216"><ele>3.0</ele><time>2026-04-27T09:05:35Z</time></trkpt><trkpt lat="55.70737009020791" lon="12.592287433795727"><ele>3.0</ele><time>2026-04-27T09:05:38Z</time></trkpt><trkpt lat="55.70738602427918" lon="12.592446288178577"><ele>3.0</ele><time>2026-04-27T09:05:41Z</time></trkpt><trkpt lat="55.70740531411442" lon="12.592589437310897"><ele>3.0</ele><time>2026-04-27T09:05:44.001Z</time></trkpt><trkpt lat="55.70741249857401" lon="12.5927129876139"><ele>3.0</ele><time>2026-04-27T09:05:46.001Z</time></trkpt><trkpt lat="55.707435254816346" lon="12.592873194829247"><ele>3.0</ele><time>2026-04-27T09:05:49.001Z</time></trkpt><trkpt lat="55.70745197878455" lon="12.593034053241178"><ele>3.0</ele><time>2026-04-27T09:05:52.001Z</time></trkpt><trkpt lat="55.70745950717794" lon="12.593147197803685"><ele>3.0</ele><time>2026-04-27T09:05:54.001Z</time></trkpt><trkpt lat="55.7074675005667" lon="12.593296065289875"><ele>3.1666666666666665</ele><time>2026-04-27T09:05:57.001Z</time></trkpt><trkpt lat="55.70747833362091" lon="12.593412149611659"><ele>3.333333333333333</ele><time>2026-04-27T09:06:00.001Z</time></trkpt><trkpt lat="55.70754009240701" lon="12.59328912642031"><ele>3.5</ele><time>2026-04-27T09:06:16Z</time></trkpt><trkpt lat="55.70749054364753" lon="12.593163164222727"><ele>3.6666666666666665</ele><time>2026-04-27T09:06:19Z</time></trkpt><trkpt lat="55.70748105368448" lon="12.593024203179688"><ele>3.833333333333333</ele><time>2026-04-27T09:06:22Z</time></trkpt><trkpt lat="55.70752041651367" lon="12.592907204891416"><ele>4.0</ele><time>2026-04-27T09:06:25Z</time></trkpt><trkpt lat="55.70758223773453" lon="12.59296181838049"><ele>3.9999999999999996</ele><time>2026-04-27T09:06:28Z</time></trkpt><trkpt lat="55.707641856320954" lon="12.593069755670717"><ele>4.0</ele><time>2026-04-27T09:06:32Z</time></trkpt><trkpt lat="55.70771044843225" lon="12.593137408366522"><ele>4.0</ele><time>2026-04-27T09:06:36Z</time></trkpt><trkpt lat="55.70778908327137" lon="12.593141784654907"><ele>4.0</ele><time>2026-04-27T09:06:41Z</time></trkpt><trkpt lat="55.70786451554974" lon="12.593130891894392"><ele>3.9999999999999996</ele><time>2026-04-27T09:06:45Z</time></trkpt><trkpt lat="55.70793801594788" lon="12.593116185423751"><ele>4.0</ele><time>2026-04-27T09:06:49Z</time></trkpt><trkpt lat="55.70800095086323" lon="12.593124213385634"><ele>3.6</ele><time>2026-04-27T09:06:52Z</time></trkpt><trkpt lat="55.70809997086256" lon="12.593133308885795"><ele>3.2</ele><time>2026-04-27T09:06:56Z</time></trkpt><trkpt lat="55.70822947821587" lon="12.593149640065246"><ele>2.8000000000000003</ele><time>2026-04-27T09:07:00Z</time></trkpt><trkpt lat="55.70829174228557" lon="12.593180661431516"><ele>2.4000000000000004</ele><time>2026-04-27T09:07:02Z</time></trkpt><trkpt lat="55.70844413065233" lon="12.593223883619068"><ele>2.0</ele><time>2026-04-27T09:07:07Z</time></trkpt><trkpt lat="55.70854189029849" lon="12.59325040147426"><ele>1.6666666666666665</ele><time>2026-04-27T09:07:10Z</time></trkpt><trkpt lat="55.70862746039777" lon="12.593254654499916"><ele>1.3333333333333333</ele><time>2026-04-27T09:07:13Z</time></trkpt><trkpt lat="55.708701415213426" lon="12.59330134439388"><ele>1.0</ele><time>2026-04-27T09:07:16Z</time></trkpt><trkpt lat="55.70877023368259" lon="12.593332969913329"><ele>0.6666666666666666</ele><time>2026-04-27T09:07:19Z</time></trkpt><trkpt lat="55.70885261959668" lon="12.59341650281293"><ele>0.3333333333333333</ele><time>2026-04-27T09:07:22Z</time></trkpt><trkpt lat="55.70893184518579" lon="12.593461829226461"><ele>0.0</ele><time>2026-04-27T09:07:25Z</time></trkpt><trkpt lat="55.709002246197976" lon="12.593485198142716"><ele>0.0</ele><time>2026-04-27T09:07:27Z</time></trkpt><trkpt lat="55.709087028433295" lon="12.593551339685199"><ele>0.0</ele><time>2026-04-27T09:07:30Z</time></trkpt><trkpt lat="55.7091465773037" lon="12.59360628766006"><ele>0.0</ele><time>2026-04-27T09:07:32Z</time></trkpt><trkpt lat="55.70921176308639" lon="12.59364723386295"><ele>0.0</ele><time>2026-04-27T09:07:34Z</time></trkpt><trkpt lat="55.709269645274595" lon="12.593705245512984"><ele>0.0</ele><time>2026-04-27T09:07:36Z</time></trkpt><trkpt lat="55.70935417430971" lon="12.59376607288556"><ele>0.0</ele><time>2026-04-27T09:07:39Z</time></trkpt><trkpt lat="55.70941840191046" lon="12.593790076313772"><ele>0.16666666666666666</ele><time>2026-04-27T09:07:41Z</time></trkpt><trkpt lat="55.709491204850856" lon="12.593833134147005"><ele>0.3333333333333333</ele><time>2026-04-27T09:07:44Z</time></trkpt><trkpt lat="55.709571492441356" lon="12.59388941777706"><ele>0.5</ele><time>2026-04-27T09:07:47Z</time></trkpt><trkpt lat="55.70965761296834" lon="12.593933360165037"><ele>0.6666666666666666</ele><time>2026-04-27T09:07:50Z</time></trkpt><trkpt lat="55.70974245570157" lon="12.594000637224852"><ele>0.8333333333333333</ele><time>2026-04-27T09:07:53Z</time></trkpt><trkpt lat="55.70982318617559" lon="12.59407250438409"><ele>1.0</ele><time>2026-04-27T09:07:56Z</time></trkpt><trkpt lat="55.70988661018309" lon="12.59411519815718"><ele>0.9999999999999999</ele><time>2026-04-27T09:07:58.001Z</time></trkpt><trkpt lat="55.70996811676501" lon="12.594192393202883"><ele>1.0</ele><time>2026-04-27T09:08:01.001Z</time></trkpt><trkpt lat="55.71003474908818" lon="12.594226774427868"><ele>1.0</ele><time>2026-04-27T09:08:03.001Z</time></trkpt><trkpt lat="55.710100833957725" lon="12.59425197290602"><ele>1.0</ele><time>2026-04-27T09:08:05.001Z</time></trkpt><trkpt lat="55.710166461108166" lon="12.59428817481064"><ele>0.9999999999999999</ele><time>2026-04-27T09:08:07.001Z</time></trkpt><trkpt lat="55.7102607085941" lon="12.594332944334571"><ele>1.0</ele><time>2026-04-27T09:08:10.001Z</time></trkpt><trkpt lat="55.71034998876599" lon="12.594385262898903"><ele>1.1666666666666665</ele><time>2026-04-27T09:08:13Z</time></trkpt><trkpt lat="55.710435403875636" lon="12.594451770931036"><ele>1.3333333333333333</ele><time>2026-04-27T09:08:16Z</time></trkpt><trkpt lat="55.710523023496734" lon="12.594495439081811"><ele>1.5</ele><time>2026-04-27T09:08:19Z</time></trkpt><trkpt lat="55.71060799684179" lon="12.594541661042172"><ele>1.6666666666666665</ele><time>2026-04-27T09:08:22Z</time></trkpt><trkpt lat="55.71068087351787" lon="12.594572441964607"><ele>1.8333333333333333</ele><time>2026-04-27T09:08:24Z</time></trkpt><trkpt lat="55.71076250905886" lon="12.594653305038783"><ele>2.0</ele><time>2026-04-27T09:08:27Z</time></trkpt><trkpt lat="55.71085664491474" lon="12.594714906513278"><ele>2.142857142857143</ele><time>2026-04-27T09:08:30Z</time></trkpt><trkpt lat="55.71092441235935" lon="12.594762653395604"><ele>2.2857142857142856</ele><time>2026-04-27T09:08:32Z</time></trkpt><trkpt lat="55.71098271264902" lon="12.594824636869463"><ele>2.4285714285714284</ele><time>2026-04-27T09:08:34Z</time></trkpt><trkpt lat="55.711052624430195" lon="12.594841226820497"><ele>2.571428571428571</ele><time>2026-04-27T09:08:36Z</time></trkpt><trkpt lat="55.71111057699211" lon="12.594904134998819"><ele>2.7142857142857144</ele><time>2026-04-27T09:08:38Z</time></trkpt><trkpt lat="55.71117278825813" lon="12.594932348174558"><ele>2.8571428571428568</ele><time>2026-04-27T09:08:40Z</time></trkpt><trkpt lat="55.71122285261362" lon="12.595018833022769"><ele>3.0</ele><time>2026-04-27T09:08:43Z</time></trkpt><trkpt lat="55.711282404728784" lon="12.595068380018194"><ele>3.0</ele><time>2026-04-27T09:09:10Z</time></trkpt><trkpt lat="55.71133521897173" lon="12.595131579860707"><ele>3.0</ele><time>2026-04-27T09:09:13Z</time></trkpt><trkpt lat="55.71152339564321" lon="12.595153070968133"><ele>3.0</ele><time>2026-04-27T09:09:20Z</time></trkpt><trkpt lat="55.71158539168893" lon="12.595193884254185"><ele>3.0</ele><time>2026-04-27T09:09:23Z</time></trkpt><trkpt lat="55.71165877884519" lon="12.59526008796128"><ele>3.0</ele><time>2026-04-27T09:09:26Z</time></trkpt><trkpt lat="55.711711519167245" lon="12.59539797311664"><ele>2.8333333333333335</ele><time>2026-04-27T09:09:29Z</time></trkpt><trkpt lat="55.711775922264174" lon="12.595504416801688"><ele>2.6666666666666665</ele><time>2026-04-27T09:09:33Z</time></trkpt><trkpt lat="55.711848173218" lon="12.59556688134024"><ele>2.5</ele><time>2026-04-27T09:09:36Z</time></trkpt><trkpt lat="55.71191160555492" lon="12.595550158813904"><ele>2.333333333333333</ele><time>2026-04-27T09:09:38Z</time></trkpt><trkpt lat="55.71199450622084" lon="12.595576062989355"><ele>2.1666666666666665</ele><time>2026-04-27T09:09:41Z</time></trkpt><trkpt lat="55.71205640094955" lon="12.59560747565036"><ele>2.0</ele><time>2026-04-27T09:09:43Z</time></trkpt><trkpt lat="55.712147456999716" lon="12.595648742057111"><ele>1.8333333333333333</ele><time>2026-04-27T09:09:46Z</time></trkpt><trkpt lat="55.71222833219267" lon="12.595715901811833"><ele>1.6666666666666665</ele><time>2026-04-27T09:09:49Z</time></trkpt><trkpt lat="55.712288304921664" lon="12.595750970185229"><ele>1.5</ele><time>2026-04-27T09:09:51Z</time></trkpt><trkpt lat="55.712360259544" lon="12.595838817691027"><ele>1.3333333333333333</ele><time>2026-04-27T09:09:54Z</time></trkpt><trkpt lat="55.71243784307197" lon="12.595920022062723"><ele>1.1666666666666665</ele><time>2026-04-27T09:09:57Z</time></trkpt><trkpt lat="55.71249416603952" lon="12.595970448932764"><ele>1.0</ele><time>2026-04-27T09:09:59.001Z</time></trkpt><trkpt lat="55.71256516550297" lon="12.59605710050338"><ele>1.0</ele><time>2026-04-27T09:10:02.001Z</time></trkpt><trkpt lat="55.712638939670896" lon="12.596129227715625"><ele>0.9999999999999999</ele><time>2026-04-27T09:10:05.001Z</time></trkpt><trkpt lat="55.71269692493983" lon="12.596181250911194"><ele>1.0</ele><time>2026-04-27T09:10:08.001Z</time></trkpt><trkpt lat="55.712763196485874" lon="12.59621363247088"><ele>1.0</ele><time>2026-04-27T09:10:15.001Z</time></trkpt><trkpt lat="55.712834614741084" lon="12.596189733140056"><ele>0.9999999999999999</ele><time>2026-04-27T09:10:20Z</time></trkpt><trkpt lat="55.71286931644953" lon="12.596086768923259"><ele>1.0</ele><time>2026-04-27T09:10:24Z</time></trkpt><trkpt lat="55.71283382476405" lon="12.595985550960915"><ele>1.0</ele><time>2026-04-27T09:10:28Z</time></trkpt><trkpt lat="55.71286924121696" lon="12.59589073803295"><ele>1.0</ele><time>2026-04-27T09:10:31Z</time></trkpt><trkpt lat="55.712876942729174" lon="12.595764555385099"><ele>0.9999999999999999</ele><time>2026-04-27T09:10:36Z</time></trkpt><trkpt lat="55.71284869805021" lon="12.595878886552686"><ele>1.0</ele><time>2026-04-27T09:10:43Z</time></trkpt><trkpt lat="55.712816400233095" lon="12.595983539352172"><ele>1.0</ele><time>2026-04-27T09:10:46Z</time></trkpt><trkpt lat="55.71279526966222" lon="12.59610052661224"><ele>0.9999999999999999</ele><time>2026-04-27T09:10:49Z</time></trkpt><trkpt lat="55.71277135616937" lon="12.596250216352818"><ele>1.0</ele><time>2026-04-27T09:10:52Z</time></trkpt><trkpt lat="55.7127390243736" lon="12.596384249574367"><ele>1.0</ele><time>2026-04-27T09:10:55Z</time></trkpt><trkpt lat="55.71271035117185" lon="12.596541746299847"><ele>0.9999999999999999</ele><time>2026-04-27T09:10:58Z</time></trkpt><trkpt lat="55.71267822165476" lon="12.596693033169924"><ele>1.0</ele><time>2026-04-27T09:11:01Z</time></trkpt><trkpt lat="55.712644971129045" lon="12.596830246128652"><ele>1.0</ele><time>2026-04-27T09:11:04Z</time></trkpt><trkpt lat="55.71260571594535" lon="12.596964466728542"><ele>1.0</ele><time>2026-04-27T09:11:07Z</time></trkpt><trkpt lat="55.71254192293333" lon="12.59707324343026"><ele>0.9999999999999999</ele><time>2026-04-27T09:11:10Z</time></trkpt><trkpt lat="55.71249903915767" lon="12.597171236014063"><ele>1.0</ele><time>2026-04-27T09:11:12Z</time></trkpt><trkpt lat="55.712436140992175" lon="12.597265238827559"><ele>0.9999999999999999</ele><time>2026-04-27T09:11:15Z</time></trkpt><trkpt lat="55.71238872057813" lon="12.597359127109241"><ele>1.0</ele><time>2026-04-27T09:11:18Z</time></trkpt><trkpt lat="55.7123534393739" lon="12.597466504866807"><ele>1.0</ele><time>2026-04-27T09:11:22Z</time></trkpt><trkpt lat="55.71240960415918" lon="12.597581070953797"><ele>1.0</ele><time>2026-04-27T09:11:26Z</time></trkpt><trkpt lat="55.7124230367186" lon="12.597690991096828"><ele>0.9999999999999999</ele><time>2026-04-27T09:11:29Z</time></trkpt><trkpt lat="55.71242878547087" lon="12.5978291970963"><ele>1.0</ele><time>2026-04-27T09:11:33Z</time></trkpt><trkpt lat="55.71243026407444" lon="12.597975882485438"><ele>1.0</ele><time>2026-04-27T09:11:36Z</time></trkpt><trkpt lat="55.712439752441696" lon="12.598110079813154"><ele>0.9999999999999999</ele><time>2026-04-27T09:11:39Z</time></trkpt><trkpt lat="55.712415143356516" lon="12.59824951063665"><ele>1.0</ele><time>2026-04-27T09:11:43Z</time></trkpt><trkpt lat="55.7123782490302" lon="12.598350666478526"><ele>1.0</ele><time>2026-04-27T09:11:47Z</time></trkpt><trkpt lat="55.71236448211827" lon="12.59847891885343"><ele>0.9999999999999999</ele><time>2026-04-27T09:11:51Z</time></trkpt><trkpt lat="55.712339765573205" lon="12.598607137048514"><ele>1.0</ele><time>2026-04-27T09:11:55Z</time></trkpt><trkpt lat="55.712350241135795" lon="12.598735617602253"><ele>1.0</ele><time>2026-04-27T09:11:59Z</time></trkpt><trkpt lat="55.71238906215779" lon="12.598865652933847"><ele>1.0</ele><time>2026-04-27T09:12:02Z</time></trkpt><trkpt lat="55.712391301086896" lon="12.599009989278096"><ele>0.9999999999999999</ele><time>2026-04-27T09:12:05Z</time></trkpt><trkpt lat="55.71238786332747" lon="12.59912194855298"><ele>1.0</ele><time>2026-04-27T09:12:07Z</time></trkpt><trkpt lat="55.71237745531175" lon="12.59923827630545"><ele>1.0</ele><time>2026-04-27T09:12:09Z</time></trkpt><trkpt lat="55.712356984158035" lon="12.599387093821138"><ele>0.9999999999999999</ele><time>2026-04-27T09:12:12Z</time></trkpt><trkpt lat="55.712323819483984" lon="12.59948293543159"><ele>1.0</ele><time>2026-04-27T09:12:15Z</time></trkpt><trkpt lat="55.71225856473818" lon="12.599472541219042"><ele>1.0</ele><time>2026-04-27T09:12:18Z</time></trkpt><trkpt lat="55.71224617955996" lon="12.599359026635131"><ele>0.9999999999999999</ele><time>2026-04-27T09:12:22Z</time></trkpt><trkpt lat="55.712295101505106" lon="12.599466596207852"><ele>1.0</ele><time>2026-04-27T09:12:26.001Z</time></trkpt><trkpt lat="55.71235500707479" lon="12.599509218983897"><ele>1.0</ele><time>2026-04-27T09:12:30Z</time></trkpt><trkpt lat="55.712419374857" lon="12.599415236407332"><ele>1.0</ele><time>2026-04-27T09:12:35Z</time></trkpt><trkpt lat="55.71244864934339" lon="12.59929722714772"><ele>0.9999999999999999</ele><time>2026-04-27T09:12:38Z</time></trkpt><trkpt lat="55.71246559765505" lon="12.599169205689549"><ele>1.0</ele><time>2026-04-27T09:12:41Z</time></trkpt><trkpt lat="55.712493476598496" lon="12.599041710803894"><ele>0.9999999999999999</ele><time>2026-04-27T09:12:44Z</time></trkpt><trkpt lat="55.71251675508659" lon="12.598894630539409"><ele>1.0</ele><time>2026-04-27T09:12:47Z</time></trkpt><trkpt lat="55.712545923596714" lon="12.598738616947177"><ele>1.0</ele><time>2026-04-27T09:12:50Z</time></trkpt><trkpt lat="55.71258621257505" lon="12.59859613980259"><ele>1.0</ele><time>2026-04-27T09:12:53Z</time></trkpt><trkpt lat="55.71260557309705" lon="12.598488368167715"><ele>0.9999999999999999</ele><time>2026-04-27T09:12:55Z</time></trkpt><trkpt lat="55.712645333309624" lon="12.598339969743233"><ele>1.0</ele><time>2026-04-27T09:12:58Z</time></trkpt><trkpt lat="55.7126813790851" lon="12.598197540085666"><ele>0.9999999999999999</ele><time>2026-04-27T09:13:01Z</time></trkpt><trkpt lat="55.7127075907924" lon="12.59808289126746"><ele>1.0</ele><time>2026-04-27T09:13:03Z</time></trkpt><trkpt lat="55.71272590255199" lon="12.597934746948543"><ele>1.0</ele><time>2026-04-27T09:13:06Z</time></trkpt><trkpt lat="55.712749110579765" lon="12.597793616736176"><ele>1.0</ele><time>2026-04-27T09:13:09Z</time></trkpt><trkpt lat="55.712736901202724" lon="12.597649608526423"><ele>0.9999999999999999</ele><time>2026-04-27T09:13:12Z</time></trkpt><trkpt lat="55.71273276513946" lon="12.597509059662748"><ele>1.0</ele><time>2026-04-27T09:13:15Z</time></trkpt><trkpt lat="55.71275192824684" lon="12.597359954771017"><ele>0.9999999999999999</ele><time>2026-04-27T09:13:18Z</time></trkpt><trkpt lat="55.71275460233984" lon="12.597219724595172"><ele>1.0</ele><time>2026-04-27T09:13:21Z</time></trkpt><trkpt lat="55.71275431496209" lon="12.597077285674185"><ele>1.0</ele><time>2026-04-27T09:13:24Z</time></trkpt><trkpt lat="55.71274110211362" lon="12.596915122244999"><ele>1.0</ele><time>2026-04-27T09:13:27Z</time></trkpt><trkpt lat="55.71272762817198" lon="12.596754720029358"><ele>0.9999999999999999</ele><time>2026-04-27T09:13:30Z</time></trkpt><trkpt lat="55.712744759896566" lon="12.596606831224735"><ele>1.0</ele><time>2026-04-27T09:13:33Z</time></trkpt><trkpt lat="55.71275890508207" lon="12.596466471211563"><ele>1.0</ele><time>2026-04-27T09:13:36Z</time></trkpt><trkpt lat="55.712798060184966" lon="12.596344316911907"><ele>0.9999999999999999</ele><time>2026-04-27T09:13:39Z</time></trkpt><trkpt lat="55.712808056768154" lon="12.596230954678113"><ele>1.0</ele><time>2026-04-27T09:13:42Z</time></trkpt><trkpt lat="55.71279020632938" lon="12.596101355178181"><ele>1.0</ele><time>2026-04-27T09:13:47Z</time></trkpt><trkpt lat="55.71271015032493" lon="12.596140451897229"><ele>0.9999999999999999</ele><time>2026-04-27T09:13:51Z</time></trkpt><trkpt lat="55.71264077549218" lon="12.59609456160348"><ele>1.0</ele><time>2026-04-27T09:13:54Z</time></trkpt><trkpt lat="55.71257835568574" lon="12.596039340865937"><ele>1.0</ele><time>2026-04-27T09:13:56Z</time></trkpt><trkpt lat="55.712509076010186" lon="12.595965826196027"><ele>0.9999999999999999</ele><time>2026-04-27T09:13:59Z</time></trkpt><trkpt lat="55.71244784795859" lon="12.595911659894748"><ele>1.0</ele><time>2026-04-27T09:14:01Z</time></trkpt><trkpt lat="55.71236275666712" lon="12.595830750038745"><ele>1.0</ele><time>2026-04-27T09:14:04Z</time></trkpt><trkpt lat="55.71228160310724" lon="12.595752906263787"><ele>1.0</ele><time>2026-04-27T09:14:07Z</time></trkpt><trkpt lat="55.712227120899925" lon="12.595682195916138"><ele>0.9999999999999999</ele><time>2026-04-27T09:14:09Z</time></trkpt><trkpt lat="55.712172250192104" lon="12.595589583266825"><ele>1.0</ele><time>2026-04-27T09:14:11Z</time></trkpt><trkpt lat="55.71210245921799" lon="12.59555948112523"><ele>1.0</ele><time>2026-04-27T09:14:13Z</time></trkpt><trkpt lat="55.712030569860055" lon="12.595529869958181"><ele>0.9999999999999999</ele><time>2026-04-27T09:14:15Z</time></trkpt><trkpt lat="55.71195928184373" lon="12.595490525239606"><ele>1.0</ele><time>2026-04-27T09:14:17Z</time></trkpt><trkpt lat="55.71188708291766" lon="12.595456444166016"><ele>1.0</ele><time>2026-04-27T09:14:19Z</time></trkpt><trkpt lat="55.71181989365374" lon="12.595408572489438"><ele>0.9999999999999999</ele><time>2026-04-27T09:14:21Z</time></trkpt><trkpt lat="55.71176024725921" lon="12.595359022420565"><ele>1.0</ele><time>2026-04-27T09:14:23Z</time></trkpt><trkpt lat="55.71169939543267" lon="12.595258038604861"><ele>1.0</ele><time>2026-04-27T09:14:26Z</time></trkpt><trkpt lat="55.711644426015646" lon="12.59517513956116"><ele>1.2857142857142856</ele><time>2026-04-27T09:14:28Z</time></trkpt><trkpt lat="55.711566668384286" lon="12.595172003413213"><ele>1.5714285714285712</ele><time>2026-04-27T09:14:31Z</time></trkpt><trkpt lat="55.71150293198119" lon="12.595140401311957"><ele>1.857142857142857</ele><time>2026-04-27T09:14:34Z</time></trkpt><trkpt lat="55.71141462097045" lon="12.595095803957275"><ele>2.142857142857143</ele><time>2026-04-27T09:14:38Z</time></trkpt><trkpt lat="55.711348431781374" lon="12.595021383619502"><ele>2.4285714285714284</ele><time>2026-04-27T09:14:41Z</time></trkpt><trkpt lat="55.71128759627404" lon="12.59498243919414"><ele>2.714285714285714</ele><time>2026-04-27T09:14:43Z</time></trkpt><trkpt lat="55.711222965427844" lon="12.594953487938355"><ele>3.0</ele><time>2026-04-27T09:14:45Z</time></trkpt><trkpt lat="55.71115951346249" lon="12.594943676540588"><ele>2.9999999999999996</ele><time>2026-04-27T09:14:47Z</time></trkpt><trkpt lat="55.71109749473652" lon="12.594900470223772"><ele>3.0</ele><time>2026-04-27T09:14:49Z</time></trkpt><trkpt lat="55.7110300008798" lon="12.59485089039509"><ele>3.0</ele><time>2026-04-27T09:14:51Z</time></trkpt><trkpt lat="55.71095767891703" lon="12.5948003465312"><ele>3.0</ele><time>2026-04-27T09:14:53Z</time></trkpt><trkpt lat="55.71088980840518" lon="12.594761904960183"><ele>3.0</ele><time>2026-04-27T09:14:55Z</time></trkpt><trkpt lat="55.71081540079883" lon="12.594720576545201"><ele>2.9999999999999996</ele><time>2026-04-27T09:14:57Z</time></trkpt><trkpt lat="55.71074574120526" lon="12.594686709134624"><ele>3.0</ele><time>2026-04-27T09:14:59Z</time></trkpt><trkpt lat="55.710678265334955" lon="12.594632115496946"><ele>3.1666666666666665</ele><time>2026-04-27T09:15:01Z</time></trkpt><trkpt lat="55.71059962325541" lon="12.59459049985187"><ele>3.333333333333333</ele><time>2026-04-27T09:15:03Z</time></trkpt><trkpt lat="55.71052380026345" lon="12.594545256030289"><ele>3.5</ele><time>2026-04-27T09:15:05Z</time></trkpt><trkpt lat="55.71044034710302" lon="12.59449421456928"><ele>3.6666666666666665</ele><time>2026-04-27T09:15:07Z</time></trkpt><trkpt lat="55.71036723313356" lon="12.594427523607754"><ele>3.833333333333333</ele><time>2026-04-27T09:15:09Z</time></trkpt><trkpt lat="55.71029585023099" lon="12.594372024662261"><ele>4.0</ele><time>2026-04-27T09:15:11Z</time></trkpt><trkpt lat="55.71020711725271" lon="12.594295149650732"><ele>3.6666666666666665</ele><time>2026-04-27T09:15:13Z</time></trkpt><trkpt lat="55.71014160118386" lon="12.594258112885822"><ele>3.333333333333333</ele><time>2026-04-27T09:15:16Z</time></trkpt><trkpt lat="55.7100673574296" lon="12.594219371131107"><ele>3.0</ele><time>2026-04-27T09:15:20Z</time></trkpt><trkpt lat="55.71000787514393" lon="12.594280941259544"><ele>2.6666666666666665</ele><time>2026-04-27T09:15:25Z</time></trkpt><trkpt lat="55.710023760011545" lon="12.594413757032582"><ele>2.333333333333333</ele><time>2026-04-27T09:15:29Z</time></trkpt><trkpt lat="55.71001135937244" lon="12.594560513100529"><ele>2.0</ele><time>2026-04-27T09:15:32Z</time></trkpt><trkpt lat="55.70999702420032" lon="12.59469401753723"><ele>2.0</ele><time>2026-04-27T09:15:35Z</time></trkpt><trkpt lat="55.709973524303116" lon="12.594823438803832"><ele>1.9999999999999998</ele><time>2026-04-27T09:15:38Z</time></trkpt><trkpt lat="55.709969010282144" lon="12.59494980143649"><ele>2.0</ele><time>2026-04-27T09:15:41Z</time></trkpt><trkpt lat="55.70996471159315" lon="12.595070746235507"><ele>2.0</ele><time>2026-04-27T09:15:44Z</time></trkpt><trkpt lat="55.70996663654839" lon="12.595187246495424"><ele>1.9999999999999998</ele><time>2026-04-27T09:15:48Z</time></trkpt><trkpt lat="55.70995323657998" lon="12.59529999976089"><ele>2.0</ele><time>2026-04-27T09:15:52Z</time></trkpt><trkpt lat="55.710005824991285" lon="12.595379986218756"><ele>2.0</ele><time>2026-04-27T09:16:21Z</time></trkpt><trkpt lat="55.71008108457632" lon="12.59543444663386"><ele>2.0</ele><time>2026-04-27T09:16:26Z</time></trkpt><trkpt lat="55.71015263753574" lon="12.595497147675221"><ele>1.9999999999999998</ele><time>2026-04-27T09:16:30Z</time></trkpt><trkpt lat="55.710203311518086" lon="12.59559329558603"><ele>2.0</ele><time>2026-04-27T09:16:34Z</time></trkpt><trkpt lat="55.71018749792835" lon="12.59573377262172"><ele>2.0</ele><time>2026-04-27T09:16:37Z</time></trkpt><trkpt lat="55.71016424003821" lon="12.595842804108088"><ele>1.9999999999999998</ele><time>2026-04-27T09:16:40Z</time></trkpt><trkpt lat="55.71014961666411" lon="12.59596409043582"><ele>2.0</ele><time>2026-04-27T09:16:43Z</time></trkpt><trkpt lat="55.71012507214574" lon="12.596093209883279"><ele>2.0</ele><time>2026-04-27T09:16:46Z</time></trkpt><trkpt lat="55.71010710514259" lon="12.596213049396814"><ele>1.8333333333333333</ele><time>2026-04-27T09:16:49Z</time></trkpt><trkpt lat="55.7100868514964" lon="12.596352528607985"><ele>1.6666666666666665</ele><time>2026-04-27T09:16:53Z</time></trkpt><trkpt lat="55.71002198596115" lon="12.596452160236158"><ele>1.5</ele><time>2026-04-27T09:16:57Z</time></trkpt><trkpt lat="55.709958260473954" lon="12.596502919404989"><ele>1.3333333333333333</ele><time>2026-04-27T09:17:01Z</time></trkpt><trkpt lat="55.709911836942396" lon="12.596601785230373"><ele>1.1666666666666665</ele><time>2026-04-27T09:17:05Z</time></trkpt><trkpt lat="55.709840444763316" lon="12.59659906431413"><ele>1.0</ele><time>2026-04-27T09:17:08Z</time></trkpt><trkpt lat="55.70977934160797" lon="12.596542345914987"><ele>0.9999999999999999</ele><time>2026-04-27T09:17:12Z</time></trkpt><trkpt lat="55.70971190897812" lon="12.59649617630445"><ele>1.0</ele><time>2026-04-27T09:17:33Z</time></trkpt><trkpt lat="55.70965932606421" lon="12.596424850085214"><ele>1.0</ele><time>2026-04-27T09:17:37Z</time></trkpt><trkpt lat="55.70955753084749" lon="12.59636244650554"><ele>1.0</ele><time>2026-04-27T09:17:40Z</time></trkpt><trkpt lat="55.70948171147792" lon="12.59640469324492"><ele>0.9999999999999999</ele><time>2026-04-27T09:17:44Z</time></trkpt><trkpt lat="55.70943284561836" lon="12.596487163411782"><ele>1.0</ele><time>2026-04-27T09:18:05Z</time></trkpt><trkpt lat="55.709443096089274" lon="12.596628137510933"><ele>1.0</ele><time>2026-04-27T09:18:08Z</time></trkpt><trkpt lat="55.70941728714829" lon="12.59673132309746"><ele>0.9999999999999999</ele><time>2026-04-27T09:18:11Z</time></trkpt><trkpt lat="55.709397971802794" lon="12.596844522453011"><ele>1.0</ele><time>2026-04-27T09:18:14Z</time></trkpt><trkpt lat="55.70937032898941" lon="12.596990852384808"><ele>1.0</ele><time>2026-04-27T09:18:18Z</time></trkpt><trkpt lat="55.70931685649605" lon="12.597078313386252"><ele>0.9999999999999999</ele><time>2026-04-27T09:18:21Z</time></trkpt><trkpt lat="55.70925499936372" lon="12.59716989128118"><ele>1.0</ele><time>2026-04-27T09:18:24Z</time></trkpt><trkpt lat="55.70920736006332" lon="12.59727250716453"><ele>1.0</ele><time>2026-04-27T09:18:27Z</time></trkpt><trkpt lat="55.70915209234473" lon="12.597345974796564"><ele>1.1428571428571428</ele><time>2026-04-27T09:18:30Z</time></trkpt><trkpt lat="55.709096729315185" lon="12.597407980586743"><ele>1.2857142857142856</ele><time>2026-04-27T09:18:35Z</time></trkpt><trkpt lat="55.70906790952531" lon="12.597520587253744"><ele>1.4285714285714284</ele><time>2026-04-27T09:18:41Z</time></trkpt><trkpt lat="55.70905656035467" lon="12.597647135527287"><ele>1.5714285714285714</ele><time>2026-04-27T09:18:43.999Z</time></trkpt><trkpt lat="55.70901105822515" lon="12.597730319407196"><ele>1.714285714285714</ele><time>2026-04-27T09:18:56.999Z</time></trkpt><trkpt lat="55.709046092576365" lon="12.597597863122965"><ele>1.857142857142857</ele><time>2026-04-27T09:19:13Z</time></trkpt><trkpt lat="55.70906658097044" lon="12.597485151215606"><ele>2.0</ele><time>2026-04-27T09:19:16Z</time></trkpt><trkpt lat="55.70906369000216" lon="12.597364923444644"><ele>2.0</ele><time>2026-04-27T09:19:19Z</time></trkpt><trkpt lat="55.70899767115578" lon="12.597321641493371"><ele>1.9999999999999998</ele><time>2026-04-27T09:19:23Z</time></trkpt><trkpt lat="55.70890732806102" lon="12.597282932880917"><ele>2.0</ele><time>2026-04-27T09:19:26Z</time></trkpt><trkpt lat="55.70884541205033" lon="12.597254169713736"><ele>2.0</ele><time>2026-04-27T09:19:29Z</time></trkpt><trkpt lat="55.7087881891274" lon="12.597198423373795"><ele>1.9999999999999998</ele><time>2026-04-27T09:19:33Z</time></trkpt><trkpt lat="55.70872056880098" lon="12.597157947407197"><ele>2.0</ele><time>2026-04-27T09:19:39Z</time></trkpt><trkpt lat="55.70864489603878" lon="12.59712522059135"><ele>2.0</ele><time>2026-04-27T09:19:43Z</time></trkpt><trkpt lat="55.70856777885692" lon="12.5970520227948"><ele>1.7142857142857142</ele><time>2026-04-27T09:19:47Z</time></trkpt><trkpt lat="55.70852154328602" lon="12.596975644982443"><ele>1.4285714285714284</ele><time>2026-04-27T09:19:50Z</time></trkpt><trkpt lat="55.708451592671395" lon="12.596978244769623"><ele>1.1428571428571428</ele><time>2026-04-27T09:19:52Z</time></trkpt><trkpt lat="55.70837510248194" lon="12.59693425858751"><ele>0.8571428571428571</ele><time>2026-04-27T09:19:55Z</time></trkpt><trkpt lat="55.708287486926615" lon="12.596913823580053"><ele>0.5714285714285714</ele><time>2026-04-27T09:19:58Z</time></trkpt><trkpt lat="55.708222921907996" lon="12.596877600064188"><ele>0.2857142857142857</ele><time>2026-04-27T09:20:00Z</time></trkpt><trkpt lat="55.7081543843389" lon="12.596858638638881"><ele>0.0</ele><time>2026-04-27T09:20:04Z</time></trkpt><trkpt lat="55.708116115126934" lon="12.596753523654982"><ele>0.0</ele><time>2026-04-27T09:20:23Z</time></trkpt><trkpt lat="55.708045313014466" lon="12.59670842859135"><ele>0.0</ele><time>2026-04-27T09:20:30Z</time></trkpt><trkpt lat="55.7079834818515" lon="12.596671092990494"><ele>0.0</ele><time>2026-04-27T09:20:33Z</time></trkpt><trkpt lat="55.707906453602135" lon="12.596630510582996"><ele>0.0</ele><time>2026-04-27T09:20:36Z</time></trkpt><trkpt lat="55.707846530389304" lon="12.596576988204411"><ele>0.0</ele><time>2026-04-27T09:20:39Z</time></trkpt><trkpt lat="55.70780569026571" lon="12.596449140609163"><ele>0.0</ele><time>2026-04-27T09:20:42Z</time></trkpt><trkpt lat="55.70778977974609" lon="12.59630627977755"><ele>0.0</ele><time>2026-04-27T09:20:45Z</time></trkpt><trkpt lat="55.707775293757194" lon="12.596163552341828"><ele>0.0</ele><time>2026-04-27T09:20:47.999Z</time></trkpt><trkpt lat="55.707750671382215" lon="12.596024645630484"><ele>0.0</ele><time>2026-04-27T09:20:50.999Z</time></trkpt><trkpt lat="55.70774543305731" lon="12.595911572677926"><ele>0.0</ele><time>2026-04-27T09:20:52.999Z</time></trkpt><trkpt lat="55.70773252633798" lon="12.595776091338164"><ele>0.0</ele><time>2026-04-27T09:20:54.999Z</time></trkpt><trkpt lat="55.70770459542057" lon="12.595669422467797"><ele>0.0</ele><time>2026-04-27T09:20:57Z</time></trkpt><trkpt lat="55.70771520489287" lon="12.595481908796371"><ele>0.0</ele><time>2026-04-27T09:21:00Z</time></trkpt><trkpt lat="55.70769251357838" lon="12.59536735859899"><ele>0.0</ele><time>2026-04-27T09:21:02Z</time></trkpt><trkpt lat="55.707692502778784" lon="12.595247922492986"><ele>0.0</ele><time>2026-04-27T09:21:04Z</time></trkpt><trkpt lat="55.707679090807545" lon="12.595123574807943"><ele>0.0</ele><time>2026-04-27T09:21:06Z</time></trkpt><trkpt lat="55.7076619243336" lon="12.595015463999275"><ele>0.0</ele><time>2026-04-27T09:21:08Z</time></trkpt><trkpt lat="55.70765395358965" lon="12.59489560777915"><ele>0.0</ele><time>2026-04-27T09:21:10Z</time></trkpt><trkpt lat="55.70764526295189" lon="12.59475958298107"><ele>0.0</ele><time>2026-04-27T09:21:13Z</time></trkpt><trkpt lat="55.70762576582896" lon="12.594646253811169"><ele>0.16666666666666666</ele><time>2026-04-27T09:21:16Z</time></trkpt><trkpt lat="55.707596474580704" lon="12.594526008528385"><ele>0.3333333333333333</ele><time>2026-04-27T09:21:19Z</time></trkpt><trkpt lat="55.70757452779819" lon="12.594380677982636"><ele>0.5</ele><time>2026-04-27T09:21:22Z</time></trkpt><trkpt lat="55.70757175700064" lon="12.594238356123684"><ele>0.6666666666666666</ele><time>2026-04-27T09:21:25Z</time></trkpt><trkpt lat="55.707563019693666" lon="12.594082206457418"><ele>0.8333333333333333</ele><time>2026-04-27T09:21:28Z</time></trkpt><trkpt lat="55.707555707572126" lon="12.593933047054753"><ele>1.0</ele><time>2026-04-27T09:21:31Z</time></trkpt><trkpt lat="55.707553745569925" lon="12.593819505991315"><ele>1.5</ele><time>2026-04-27T09:21:33Z</time></trkpt><trkpt lat="55.707523847071045" lon="12.593663827107946"><ele>2.0</ele><time>2026-04-27T09:21:36Z</time></trkpt><trkpt lat="55.70751444489039" lon="12.59351341075183"><ele>2.5</ele><time>2026-04-27T09:21:39Z</time></trkpt><trkpt lat="55.707507629659794" lon="12.593400675642206"><ele>3.0</ele><time>2026-04-27T09:21:41Z</time></trkpt><trkpt lat="55.70748599509564" lon="12.59325415900467"><ele>3.4999999999999996</ele><time>2026-04-27T09:21:44Z</time></trkpt><trkpt lat="55.70747320491717" lon="12.593102806564746"><ele>4.0</ele><time>2026-04-27T09:21:47Z</time></trkpt><trkpt lat="55.70746769532534" lon="12.592981198454995"><ele>4.0</ele><time>2026-04-27T09:21:50Z</time></trkpt><trkpt lat="55.707501625200265" lon="12.59288250775546"><ele>3.9999999999999996</ele><time>2026-04-27T09:21:53Z</time></trkpt><trkpt lat="55.70755017183906" lon="12.592782679975398"><ele>4.0</ele><time>2026-04-27T09:21:56Z</time></trkpt><trkpt lat="55.70752485365173" lon="12.592654934557455"><ele>4.0</ele><time>2026-04-27T09:21:59Z</time></trkpt><trkpt lat="55.70751221326085" lon="12.592541499269524"><ele>3.9999999999999996</ele><time>2026-04-27T09:22:02Z</time></trkpt><trkpt lat="55.70749722997828" lon="12.59239406604626"><ele>4.0</ele><time>2026-04-27T09:22:06Z</time></trkpt><trkpt lat="55.70748153030196" lon="12.592267883113154"><ele>4.0</ele><time>2026-04-27T09:22:09Z</time></trkpt><trkpt lat="55.70747665316565" lon="12.592137432150945"><ele>3.833333333333333</ele><time>2026-04-27T09:22:12Z</time></trkpt><trkpt lat="55.70744840479095" lon="12.591982729039879"><ele>3.6666666666666665</ele><time>2026-04-27T09:22:15Z</time></trkpt><trkpt lat="55.70744299580784" lon="12.59182989537182"><ele>3.5</ele><time>2026-04-27T09:22:19Z</time></trkpt><trkpt lat="55.7074400617671" lon="12.591709307950806"><ele>3.333333333333333</ele><time>2026-04-27T09:22:22Z</time></trkpt><trkpt lat="55.707419130726684" lon="12.591603006693813"><ele>3.1666666666666665</ele><time>2026-04-27T09:22:25Z</time></trkpt><trkpt lat="55.70741451757935" lon="12.591486671098824"><ele>3.0</ele><time>2026-04-27T09:23:46Z</time></trkpt><trkpt lat="55.70739615730177" lon="12.591273044922154"><ele>3.2857142857142856</ele><time>2026-04-27T09:24:38.001Z</time></trkpt><trkpt lat="55.70738103556008" lon="12.591153734478075"><ele>3.571428571428571</ele><time>2026-04-27T09:24:41.001Z</time></trkpt><trkpt lat="55.70736755201454" lon="12.591022431758725"><ele>3.8571428571428568</ele><time>2026-04-27T09:24:44.001Z</time></trkpt><trkpt lat="55.70733819941194" lon="12.590875055445242"><ele>4.142857142857142</ele><time>2026-04-27T09:24:47.001Z</time></trkpt><trkpt lat="55.70732538216744" lon="12.590761516425715"><ele>4.428571428571429</ele><time>2026-04-27T09:24:49.001Z</time></trkpt><trkpt lat="55.70730803158703" lon="12.590650297024679"><ele>4.714285714285714</ele><time>2026-04-27T09:24:51.001Z</time></trkpt><trkpt lat="55.70728922986835" lon="12.59053198631904"><ele>5.0</ele><time>2026-04-27T09:24:53.001Z</time></trkpt><trkpt lat="55.70727442811782" lon="12.590420742461854"><ele>5.0</ele><time>2026-04-27T09:24:55.001Z</time></trkpt><trkpt lat="55.70725724773151" lon="12.590305879397759"><ele>5.0</ele><time>2026-04-27T09:24:57.001Z</time></trkpt><trkpt lat="55.70720822389838" lon="12.590188257171443"><ele>5.0</ele><time>2026-04-27T09:25:03Z</time></trkpt><trkpt lat="55.70720535714714" lon="12.589954619232996"><ele>5.0</ele><time>2026-04-27T09:25:04Z</time></trkpt><trkpt lat="55.70718335362356" lon="12.58979456242306"><ele>5.0</ele><time>2026-04-27T09:25:06Z</time></trkpt><trkpt lat="55.70717169998607" lon="12.589670324526399"><ele>5.0</ele><time>2026-04-27T09:25:08Z</time></trkpt><trkpt lat="55.70714985058676" lon="12.58955489835132"><ele>4.833333333333334</ele><time>2026-04-27T09:25:10Z</time></trkpt><trkpt lat="55.70713918657283" lon="12.589441965994306"><ele>4.666666666666667</ele><time>2026-04-27T09:25:12Z</time></trkpt><trkpt lat="55.70713308537406" lon="12.58929951303067"><ele>4.5</ele><time>2026-04-27T09:25:14Z</time></trkpt><trkpt lat="55.70710179073251" lon="12.589157529456859"><ele>4.333333333333333</ele><time>2026-04-27T09:25:16Z</time></trkpt><trkpt lat="55.70708070477406" lon="12.58902282082662"><ele>4.166666666666666</ele><time>2026-04-27T09:25:18Z</time></trkpt><trkpt lat="55.707053450572424" lon="12.58885761900376"><ele>4.0</ele><time>2026-04-27T09:25:20Z</time></trkpt><trkpt lat="55.70702584392285" lon="12.588726866176115"><ele>4.0</ele><time>2026-04-27T09:25:22Z</time></trkpt><trkpt lat="55.70700782964235" lon="12.58860363047999"><ele>3.9999999999999996</ele><time>2026-04-27T09:25:24Z</time></trkpt><trkpt lat="55.706992297174274" lon="12.588465313884676"><ele>4.0</ele><time>2026-04-27T09:25:26Z</time></trkpt><trkpt lat="55.70699853733087" lon="12.588342107739669"><ele>4.0</ele><time>2026-04-27T09:25:28Z</time></trkpt><trkpt lat="55.706996600544414" lon="12.588218969012882"><ele>3.9999999999999996</ele><time>2026-04-27T09:25:30Z</time></trkpt><trkpt lat="55.70697480430316" lon="12.588111257662964"><ele>4.0</ele><time>2026-04-27T09:25:32Z</time></trkpt><trkpt lat="55.706961012438896" lon="12.588002084674489"><ele>4.0</ele><time>2026-04-27T09:25:34Z</time></trkpt><trkpt lat="55.70695091673334" lon="12.58783401037293"><ele>4.166666666666666</ele><time>2026-04-27T09:25:37Z</time></trkpt><trkpt lat="55.70693076716103" lon="12.58771765495261"><ele>4.333333333333333</ele><time>2026-04-27T09:25:39Z</time></trkpt><trkpt lat="55.70691383052946" lon="12.587603808287303"><ele>4.5</ele><time>2026-04-27T09:25:41Z</time></trkpt><trkpt lat="55.70689915310005" lon="12.587478578788785"><ele>4.666666666666667</ele><time>2026-04-27T09:25:43Z</time></trkpt><trkpt lat="55.70688145598794" lon="12.587366867007505"><ele>4.833333333333334</ele><time>2026-04-27T09:25:45Z</time></trkpt><trkpt lat="55.7068596828307" lon="12.587206059638495"><ele>5.0</ele><time>2026-04-27T09:25:48Z</time></trkpt><trkpt lat="55.70684505014213" lon="12.587029926944712"><ele>5.166666666666667</ele><time>2026-04-27T09:25:51Z</time></trkpt><trkpt lat="55.70683621638408" lon="12.586915620995828"><ele>5.333333333333334</ele><time>2026-04-27T09:25:53Z</time></trkpt><trkpt lat="55.706817802354266" lon="12.586762002669655"><ele>5.5</ele><time>2026-04-27T09:25:56Z</time></trkpt><trkpt lat="55.70680047840316" lon="12.586610715452478"><ele>5.666666666666667</ele><time>2026-04-27T09:25:59Z</time></trkpt><trkpt lat="55.70680531599708" lon="12.586482368143951"><ele>5.833333333333333</ele><time>2026-04-27T09:26:03Z</time></trkpt><trkpt lat="55.70681699217363" lon="12.586334253638539"><ele>6.0</ele><time>2026-04-27T09:26:09Z</time></trkpt><trkpt lat="55.706803216657065" lon="12.58619501027353"><ele>5.833333333333333</ele><time>2026-04-27T09:26:14Z</time></trkpt><trkpt lat="55.70678610010392" lon="12.58607198454406"><ele>5.666666666666667</ele><time>2026-04-27T09:26:17Z</time></trkpt><trkpt lat="55.706763876144194" lon="12.585954769017025"><ele>5.5</ele><time>2026-04-27T09:26:20Z</time></trkpt><trkpt lat="55.70670912760433" lon="12.585874803519092"><ele>5.333333333333334</ele><time>2026-04-27T09:26:23Z</time></trkpt><trkpt lat="55.706704350655855" lon="12.58575140530683"><ele>5.166666666666667</ele><time>2026-04-27T09:26:25Z</time></trkpt><trkpt lat="55.70668717929234" lon="12.585604057299875"><ele>5.0</ele><time>2026-04-27T09:26:28Z</time></trkpt><trkpt lat="55.706675349690585" lon="12.58544959608549"><ele>5.666666666666667</ele><time>2026-04-27T09:26:31Z</time></trkpt><trkpt lat="55.706660806870424" lon="12.585295010695528"><ele>6.333333333333334</ele><time>2026-04-27T09:26:34Z</time></trkpt><trkpt lat="55.70664614177026" lon="12.58514567251354"><ele>7.0</ele><time>2026-04-27T09:26:37Z</time></trkpt><trkpt lat="55.70662053453203" lon="12.585039793436454"><ele>7.666666666666667</ele><time>2026-04-27T09:26:39Z</time></trkpt><trkpt lat="55.70660068296781" lon="12.584888581339289"><ele>8.333333333333334</ele><time>2026-04-27T09:26:42Z</time></trkpt><trkpt lat="55.70658743854193" lon="12.58473149396652"><ele>9.0</ele><time>2026-04-27T09:26:45Z</time></trkpt><trkpt lat="55.706580890876644" lon="12.584616081874204"><ele>9.166666666666666</ele><time>2026-04-27T09:26:47Z</time></trkpt><trkpt lat="55.70655117741532" lon="12.584461583075626"><ele>9.333333333333334</ele><time>2026-04-27T09:26:50Z</time></trkpt><trkpt lat="55.706528477225966" lon="12.584322465424663"><ele>9.5</ele><time>2026-04-27T09:26:53Z</time></trkpt><trkpt lat="55.706525448053604" lon="12.584207752864257"><ele>9.666666666666668</ele><time>2026-04-27T09:26:55.001Z</time></trkpt><trkpt lat="55.70652574183215" lon="12.584094329226323"><ele>9.833333333333334</ele><time>2026-04-27T09:26:57.001Z</time></trkpt><trkpt lat="55.706541527554435" lon="12.58396906235877"><ele>10.0</ele><time>2026-04-27T09:26:59.001Z</time></trkpt><trkpt lat="55.70653245157486" lon="12.583807535039236"><ele>10.0</ele><time>2026-04-27T09:27:02.001Z</time></trkpt><trkpt lat="55.70652430343039" lon="12.583643106230427"><ele>10.0</ele><time>2026-04-27T09:27:05.001Z</time></trkpt><trkpt lat="55.70651265006069" lon="12.583484431787124"><ele>10.0</ele><time>2026-04-27T09:27:08Z</time></trkpt><trkpt lat="55.706494826684725" lon="12.583330926725083"><ele>10.0</ele><time>2026-04-27T09:27:11Z</time></trkpt><trkpt lat="55.706469191137856" lon="12.58318266546477"><ele>10.0</ele><time>2026-04-27T09:27:14Z</time></trkpt><trkpt lat="55.70644227529586" lon="12.583031599222906"><ele>10.0</ele><time>2026-04-27T09:27:17Z</time></trkpt><trkpt lat="55.70643051794067" lon="12.58286865662912"><ele>10.166666666666668</ele><time>2026-04-27T09:27:20Z</time></trkpt><trkpt lat="55.70641195873342" lon="12.58276004695705"><ele>10.333333333333334</ele><time>2026-04-27T09:27:22Z</time></trkpt><trkpt lat="55.70639990853677" lon="12.582595671047086"><ele>10.5</ele><time>2026-04-27T09:27:25Z</time></trkpt><trkpt lat="55.70637994972431" lon="12.58243541497328"><ele>10.666666666666666</ele><time>2026-04-27T09:27:28Z</time></trkpt><trkpt lat="55.70636390336393" lon="12.582274307654496"><ele>10.833333333333332</ele><time>2026-04-27T09:27:31Z</time></trkpt><trkpt lat="55.7063482428147" lon="12.582161111789326"><ele>11.0</ele><time>2026-04-27T09:27:33Z</time></trkpt><trkpt lat="55.70632839037603" lon="12.58199349533336"><ele>11.0</ele><time>2026-04-27T09:27:36Z</time></trkpt><trkpt lat="55.70632643993467" lon="12.58183660328878"><ele>11.0</ele><time>2026-04-27T09:27:39Z</time></trkpt><trkpt lat="55.70631011622332" lon="12.581686527489959"><ele>11.0</ele><time>2026-04-27T09:27:42Z</time></trkpt><trkpt lat="55.70629830076192" lon="12.581541310639414"><ele>11.0</ele><time>2026-04-27T09:27:45Z</time></trkpt><trkpt lat="55.70628393549388" lon="12.581402686855123"><ele>11.0</ele><time>2026-04-27T09:27:48Z</time></trkpt><trkpt lat="55.70627186653159" lon="12.581244065947917"><ele>11.0</ele><time>2026-04-27T09:27:51Z</time></trkpt><trkpt lat="55.70624102716055" lon="12.581142906705344"><ele>11.166666666666666</ele><time>2026-04-27T09:27:53Z</time></trkpt><trkpt lat="55.706235504039775" lon="12.580998207671087"><ele>11.333333333333332</ele><time>2026-04-27T09:27:56Z</time></trkpt><trkpt lat="55.70623823162447" lon="12.58085304092065"><ele>11.5</ele><time>2026-04-27T09:27:59Z</time></trkpt><trkpt lat="55.706224746819686" lon="12.58071351983201"><ele>11.666666666666666</ele><time>2026-04-27T09:28:03Z</time></trkpt><trkpt lat="55.70620046179256" lon="12.580587617783191"><ele>11.833333333333334</ele><time>2026-04-27T09:28:19Z</time></trkpt><trkpt lat="55.70615914066833" lon="12.580493360716693"><ele>12.0</ele><time>2026-04-27T09:28:24.001Z</time></trkpt><trkpt lat="55.706097299613525" lon="12.580461736463485"><ele>12.0</ele><time>2026-04-27T09:28:27.001Z</time></trkpt><trkpt lat="55.70601829337959" lon="12.580494769290626"><ele>12.0</ele><time>2026-04-27T09:28:31.001Z</time></trkpt><trkpt lat="55.70593387388454" lon="12.580572433241919"><ele>12.0</ele><time>2026-04-27T09:28:34.001Z</time></trkpt><trkpt lat="55.70585488611819" lon="12.580637392742386"><ele>12.0</ele><time>2026-04-27T09:28:37.001Z</time></trkpt><trkpt lat="55.7057754999839" lon="12.580666637456051"><ele>12.0</ele><time>2026-04-27T09:28:39.001Z</time></trkpt><trkpt lat="55.70570611441466" lon="12.580707769889367"><ele>12.0</ele><time>2026-04-27T09:28:41.001Z</time></trkpt><trkpt lat="55.7056315252251" lon="12.580788506725273"><ele>12.0</ele><time>2026-04-27T09:28:44.001Z</time></trkpt><trkpt lat="55.705538881109824" lon="12.580830151897798"><ele>12.0</ele><time>2026-04-27T09:28:47.001Z</time></trkpt><trkpt lat="55.705465561521045" lon="12.580839035998714"><ele>12.0</ele><time>2026-04-27T09:28:49.001Z</time></trkpt><trkpt lat="55.705394345603615" lon="12.580860869005498"><ele>12.0</ele><time>2026-04-27T09:28:51.001Z</time></trkpt><trkpt lat="55.705317653461925" lon="12.58086225960189"><ele>12.0</ele><time>2026-04-27T09:28:53.001Z</time></trkpt><trkpt lat="55.70524842093729" lon="12.580866052613324"><ele>12.0</ele><time>2026-04-27T09:28:55.001Z</time></trkpt><trkpt lat="55.70517188724967" lon="12.580879969968557"><ele>11.666666666666666</ele><time>2026-04-27T09:28:58.001Z</time></trkpt><trkpt lat="55.705097184432965" lon="12.580917914044603"><ele>11.333333333333334</ele><time>2026-04-27T09:29:01.001Z</time></trkpt><trkpt lat="55.70503274571158" lon="12.580916220736574"><ele>11.0</ele><time>2026-04-27T09:29:03.001Z</time></trkpt><trkpt lat="55.70495565194622" lon="12.580947278508381"><ele>10.666666666666668</ele><time>2026-04-27T09:29:06.001Z</time></trkpt><trkpt lat="55.70488004752989" lon="12.580944045907117"><ele>10.333333333333334</ele><time>2026-04-27T09:29:09.001Z</time></trkpt><trkpt lat="55.70478185804031" lon="12.580916004894506"><ele>10.0</ele><time>2026-04-27T09:29:13Z</time></trkpt><trkpt lat="55.704712567572805" lon="12.58088219538038"><ele>10.0</ele><time>2026-04-27T09:29:16Z</time></trkpt><trkpt lat="55.70464451788931" lon="12.580858618693272"><ele>10.0</ele><time>2026-04-27T09:29:20Z</time></trkpt><trkpt lat="55.70458853540344" lon="12.580979795027128"><ele>10.0</ele><time>2026-04-27T09:29:45Z</time></trkpt><trkpt lat="55.70459771725581" lon="12.580849684009971"><ele>10.0</ele><time>2026-04-27T09:29:55Z</time></trkpt><trkpt lat="55.70452231887758" lon="12.58089993383874"><ele>10.0</ele><time>2026-04-27T09:29:59Z</time></trkpt><trkpt lat="55.7044522580906" lon="12.580943017152656"><ele>10.0</ele><time>2026-04-27T09:30:02Z</time></trkpt><trkpt lat="55.70436851700623" lon="12.580975748284994"><ele>10.0</ele><time>2026-04-27T09:30:06Z</time></trkpt><trkpt lat="55.70429063850887" lon="12.580997293026252"><ele>10.0</ele><time>2026-04-27T09:30:09Z</time></trkpt><trkpt lat="55.704208107343995" lon="12.581023030159253"><ele>10.0</ele><time>2026-04-27T09:30:12Z</time></trkpt><trkpt lat="55.704125877410355" lon="12.5810511123372"><ele>10.0</ele><time>2026-04-27T09:30:15Z</time></trkpt><trkpt lat="55.704072853840714" lon="12.581129757860877"><ele>10.0</ele><time>2026-04-27T09:30:17Z</time></trkpt><trkpt lat="55.704004365644366" lon="12.581170805742442"><ele>10.0</ele><time>2026-04-27T09:30:20Z</time></trkpt><trkpt lat="55.70391583027606" lon="12.58118472701344"><ele>10.0</ele><time>2026-04-27T09:30:23Z</time></trkpt><trkpt lat="55.70383092942471" lon="12.581193602785325"><ele>10.0</ele><time>2026-04-27T09:30:26Z</time></trkpt><trkpt lat="55.70374270796145" lon="12.581169243496287"><ele>10.0</ele><time>2026-04-27T09:30:29Z</time></trkpt><trkpt lat="55.703669752307796" lon="12.5811950954127"><ele>10.0</ele><time>2026-04-27T09:30:31Z</time></trkpt><trkpt lat="55.70360690417596" lon="12.581188620906492"><ele>10.0</ele><time>2026-04-27T09:30:33Z</time></trkpt><trkpt lat="55.70353184660369" lon="12.58121079160939"><ele>10.0</ele><time>2026-04-27T09:30:36Z</time></trkpt><trkpt lat="55.70345615226341" lon="12.581234759923602"><ele>9.833333333333334</ele><time>2026-04-27T09:30:39Z</time></trkpt><trkpt lat="55.70337738609543" lon="12.581266409710189"><ele>9.666666666666668</ele><time>2026-04-27T09:30:42Z</time></trkpt><trkpt lat="55.70329980042369" lon="12.581278277084994"><ele>9.5</ele><time>2026-04-27T09:30:45Z</time></trkpt><trkpt lat="55.70321435547307" lon="12.581302313953703"><ele>9.333333333333334</ele><time>2026-04-27T09:30:48.001Z</time></trkpt><trkpt lat="55.703137446507284" lon="12.58132003643203"><ele>9.166666666666666</ele><time>2026-04-27T09:30:51.001Z</time></trkpt><trkpt lat="55.70307372313247" lon="12.581329234756252"><ele>9.0</ele><time>2026-04-27T09:30:54.001Z</time></trkpt><trkpt lat="55.70300952665223" lon="12.581337367254662"><ele>9.000000000000002</ele><time>2026-04-27T09:30:57.001Z</time></trkpt><trkpt lat="55.70294472982585" lon="12.581354334933083"><ele>9.0</ele><time>2026-04-27T09:31:00.001Z</time></trkpt><trkpt lat="55.70287925582709" lon="12.581383065733633"><ele>9.0</ele><time>2026-04-27T09:31:03.001Z</time></trkpt><trkpt lat="55.702805205062376" lon="12.581373847927523"><ele>9.0</ele><time>2026-04-27T09:31:08.001Z</time></trkpt><trkpt lat="55.70274272847732" lon="12.58140906028949"><ele>9.0</ele><time>2026-04-27T09:31:12.001Z</time></trkpt><trkpt lat="55.702677459601986" lon="12.581437357407818"><ele>9.000000000000002</ele><time>2026-04-27T09:31:15.001Z</time></trkpt><trkpt lat="55.70260860762619" lon="12.581477481200187"><ele>9.0</ele><time>2026-04-27T09:31:18Z</time></trkpt><trkpt lat="55.702522904271895" lon="12.581507426267219"><ele>9.333333333333334</ele><time>2026-04-27T09:31:21Z</time></trkpt><trkpt lat="55.702454293699475" lon="12.581536763184772"><ele>9.666666666666666</ele><time>2026-04-27T09:31:25Z</time></trkpt><trkpt lat="55.70251805377067" lon="12.581579803522663"><ele>10.0</ele><time>2026-04-27T09:31:33Z</time></trkpt><trkpt lat="55.702578220375536" lon="12.581505333304916"><ele>10.333333333333332</ele><time>2026-04-27T09:31:37Z</time></trkpt><trkpt lat="55.702572898755605" lon="12.581325767621632"><ele>10.666666666666666</ele><time>2026-04-27T09:33:33Z</time></trkpt><trkpt lat="55.70255801296301" lon="12.581177847705229"><ele>11.0</ele><time>2026-04-27T09:33:36Z</time></trkpt><trkpt lat="55.702665960927504" lon="12.581398131987653"><ele>11.0</ele><time>2026-04-27T09:34:33Z</time></trkpt><trkpt lat="55.70253412992164" lon="12.581435804376197"><ele>11.0</ele><time>2026-04-27T09:34:35Z</time></trkpt><trkpt lat="55.702568035126276" lon="12.581615025149176"><ele>11.0</ele><time>2026-04-27T09:34:37Z</time></trkpt><trkpt lat="55.70260719618144" lon="12.581716339232255"><ele>11.0</ele><time>2026-04-27T09:34:40Z</time></trkpt><trkpt lat="55.70252130072385" lon="12.581674128134766"><ele>11.0</ele><time>2026-04-27T09:39:29.001Z</time></trkpt><trkpt lat="55.70245131414215" lon="12.581697010770242"><ele>11.0</ele><time>2026-04-27T09:39:33.001Z</time></trkpt><trkpt lat="55.702374094253756" lon="12.581730934961609"><ele>11.0</ele><time>2026-04-27T09:39:36.001Z</time></trkpt><trkpt lat="55.702293032022666" lon="12.581760685416803"><ele>11.0</ele><time>2026-04-27T09:39:39.001Z</time></trkpt><trkpt lat="55.70222100630301" lon="12.58170549607588"><ele>11.0</ele><time>2026-04-27T09:39:42.001Z</time></trkpt><trkpt lat="55.70214847787261" lon="12.58169181193965"><ele>11.0</ele><time>2026-04-27T09:39:45.001Z</time></trkpt><trkpt lat="55.70207627045518" lon="12.581713396277337"><ele>11.0</ele><time>2026-04-27T09:39:48Z</time></trkpt><trkpt lat="55.70202009688036" lon="12.58179794172972"><ele>11.0</ele><time>2026-04-27T09:39:51Z</time></trkpt><trkpt lat="55.701958777038705" lon="12.581836537655382"><ele>11.0</ele><time>2026-04-27T09:40:02Z</time></trkpt><trkpt lat="55.70190908420094" lon="12.581963074448385"><ele>11.0</ele><time>2026-04-27T09:40:27Z</time></trkpt><trkpt lat="55.70190228078392" lon="12.582084902447976"><ele>11.0</ele><time>2026-04-27T09:40:33Z</time></trkpt><trkpt lat="55.70195867638902" lon="12.582148128820519"><ele>11.0</ele><time>2026-04-27T09:40:36Z</time></trkpt><trkpt lat="55.70200952602859" lon="12.582258206247754"><ele>11.0</ele><time>2026-04-27T09:40:39Z</time></trkpt><trkpt lat="55.702065707052576" lon="12.582334432910509"><ele>11.0</ele><time>2026-04-27T09:40:42Z</time></trkpt><trkpt lat="55.702107125928514" lon="12.582436375691573"><ele>10.857142857142858</ele><time>2026-04-27T09:40:45Z</time></trkpt><trkpt lat="55.702128650189245" lon="12.58254864550781"><ele>10.714285714285714</ele><time>2026-04-27T09:40:47Z</time></trkpt><trkpt lat="55.702150762170994" lon="12.582681939480786"><ele>10.571428571428571</ele><time>2026-04-27T09:40:50Z</time></trkpt><trkpt lat="55.70218903036514" lon="12.582801770344405"><ele>10.428571428571429</ele><time>2026-04-27T09:40:53Z</time></trkpt><trkpt lat="55.702217346138085" lon="12.582935349058186"><ele>10.285714285714286</ele><time>2026-04-27T09:40:56.001Z</time></trkpt><trkpt lat="55.702252469097516" lon="12.583061902792142"><ele>10.142857142857142</ele><time>2026-04-27T09:40:59.001Z</time></trkpt><trkpt lat="55.70229455777446" lon="12.583149053169462"><ele>10.0</ele><time>2026-04-27T09:41:02.001Z</time></trkpt><trkpt lat="55.702320787587716" lon="12.583258879655197"><ele>9.833333333333334</ele><time>2026-04-27T09:41:13.001Z</time></trkpt><trkpt lat="55.70235628744403" lon="12.583357924182453"><ele>9.666666666666668</ele><time>2026-04-27T09:41:16.001Z</time></trkpt><trkpt lat="55.70240720393428" lon="12.583440232447641"><ele>9.5</ele><time>2026-04-27T09:41:19.001Z</time></trkpt><trkpt lat="55.702436280559226" lon="12.583544835554589"><ele>9.333333333333334</ele><time>2026-04-27T09:41:22.001Z</time></trkpt><trkpt lat="55.702494286657505" lon="12.583647413985018"><ele>9.166666666666666</ele><time>2026-04-27T09:41:25.001Z</time></trkpt><trkpt lat="55.70254156679388" lon="12.583778475479514"><ele>9.0</ele><time>2026-04-27T09:41:28.001Z</time></trkpt><trkpt lat="55.70258215132783" lon="12.583902547390506"><ele>8.666666666666666</ele><time>2026-04-27T09:41:31.001Z</time></trkpt><trkpt lat="55.70263486389329" lon="12.584014634610071"><ele>8.333333333333334</ele><time>2026-04-27T09:41:34.001Z</time></trkpt><trkpt lat="55.702662541723086" lon="12.584133615930904"><ele>8.0</ele><time>2026-04-27T09:41:37.001Z</time></trkpt><trkpt lat="55.70270520466675" lon="12.584293508721478"><ele>7.666666666666667</ele><time>2026-04-27T09:41:40.001Z</time></trkpt><trkpt lat="55.70274108136277" lon="12.584416270726582"><ele>7.333333333333334</ele><time>2026-04-27T09:41:43.001Z</time></trkpt><trkpt lat="55.70279062840074" lon="12.584503620757715"><ele>7.0</ele><time>2026-04-27T09:41:46.001Z</time></trkpt><trkpt lat="55.70285062007623" lon="12.584584528975961"><ele>7.000000000000001</ele><time>2026-04-27T09:41:49Z</time></trkpt><trkpt lat="55.70288068275497" lon="12.584703881444417"><ele>7.0</ele><time>2026-04-27T09:41:52Z</time></trkpt><trkpt lat="55.702924795353134" lon="12.584807436054664"><ele>7.0</ele><time>2026-04-27T09:41:55Z</time></trkpt><trkpt lat="55.70296591722093" lon="12.584931324260006"><ele>7.0</ele><time>2026-04-27T09:41:58Z</time></trkpt><trkpt lat="55.70301333894835" lon="12.585057721523805"><ele>7.000000000000001</ele><time>2026-04-27T09:42:01Z</time></trkpt><trkpt lat="55.703059852737056" lon="12.585184288696228"><ele>7.0</ele><time>2026-04-27T09:42:04Z</time></trkpt><trkpt lat="55.70310465002895" lon="12.585289569673765"><ele>7.000000000000001</ele><time>2026-04-27T09:42:07Z</time></trkpt><trkpt lat="55.703137087268196" lon="12.585441729965256"><ele>7.0</ele><time>2026-04-27T09:42:10Z</time></trkpt><trkpt lat="55.70315211448803" lon="12.585585464413445"><ele>7.0</ele><time>2026-04-27T09:42:13Z</time></trkpt><trkpt lat="55.70318745835887" lon="12.58568396401415"><ele>7.0</ele><time>2026-04-27T09:42:15Z</time></trkpt><trkpt lat="55.70320574597593" lon="12.58583104911499"><ele>7.000000000000001</ele><time>2026-04-27T09:42:18Z</time></trkpt><trkpt lat="55.70322271904273" lon="12.58596945059826"><ele>7.0</ele><time>2026-04-27T09:42:21Z</time></trkpt><trkpt lat="55.70324319242836" lon="12.58607701596892"><ele>6.666666666666667</ele><time>2026-04-27T09:42:23Z</time></trkpt><trkpt lat="55.70326948977537" lon="12.586222767951977"><ele>6.333333333333334</ele><time>2026-04-27T09:42:26Z</time></trkpt><trkpt lat="55.70328638540664" lon="12.586331114034573"><ele>6.0</ele><time>2026-04-27T09:42:28Z</time></trkpt><trkpt lat="55.70331595543133" lon="12.586440906264388"><ele>5.666666666666667</ele><time>2026-04-27T09:42:30Z</time></trkpt><trkpt lat="55.70334434665292" lon="12.586561111919698"><ele>5.333333333333334</ele><time>2026-04-27T09:42:33Z</time></trkpt><trkpt lat="55.703357765573365" lon="12.586694162961166"><ele>5.0</ele><time>2026-04-27T09:42:35Z</time></trkpt><trkpt lat="55.703393861943916" lon="12.586847538112412"><ele>5.0</ele><time>2026-04-27T09:42:38Z</time></trkpt><trkpt lat="55.70340533902595" lon="12.586997168194273"><ele>5.0</ele><time>2026-04-27T09:42:41Z</time></trkpt><trkpt lat="55.70342697062299" lon="12.587146990258457"><ele>5.0</ele><time>2026-04-27T09:42:44Z</time></trkpt><trkpt lat="55.703445793838114" lon="12.587284320547257"><ele>5.0</ele><time>2026-04-27T09:42:47Z</time></trkpt><trkpt lat="55.70346021341735" lon="12.587409659608364"><ele>5.0</ele><time>2026-04-27T09:42:51Z</time></trkpt><trkpt lat="55.70348752492498" lon="12.587529804751403"><ele>5.0</ele><time>2026-04-27T09:43:37Z</time></trkpt><trkpt lat="55.70347685479771" lon="12.587647992183369"><ele>5.0</ele><time>2026-04-27T09:43:40Z</time></trkpt><trkpt lat="55.70345494214662" lon="12.587782834849392"><ele>5.0</ele><time>2026-04-27T09:43:43Z</time></trkpt><trkpt lat="55.70343842522765" lon="12.58791914290755"><ele>5.0</ele><time>2026-04-27T09:43:46Z</time></trkpt><trkpt lat="55.70342634943545" lon="12.588083416236406"><ele>5.0</ele><time>2026-04-27T09:43:49Z</time></trkpt><trkpt lat="55.70343568341495" lon="12.58820784439248"><ele>5.0</ele><time>2026-04-27T09:43:52Z</time></trkpt><trkpt lat="55.703438999270546" lon="12.588370377315641"><ele>5.0</ele><time>2026-04-27T09:43:55Z</time></trkpt><trkpt lat="55.70344293098165" lon="12.58851758689322"><ele>5.5</ele><time>2026-04-27T09:43:58Z</time></trkpt><trkpt lat="55.703478309817605" lon="12.588614867473131"><ele>6.0</ele><time>2026-04-27T09:44:00Z</time></trkpt><trkpt lat="55.703481612386966" lon="12.588743915631406"><ele>6.5</ele><time>2026-04-27T09:44:03Z</time></trkpt><trkpt lat="55.70350711378645" lon="12.588863331253096"><ele>7.0</ele><time>2026-04-27T09:44:06Z</time></trkpt><trkpt lat="55.7035576671995" lon="12.589005028549279"><ele>7.499999999999999</ele><time>2026-04-27T09:44:09Z</time></trkpt><trkpt lat="55.703589091962584" lon="12.589167650711904"><ele>8.0</ele><time>2026-04-27T09:44:12Z</time></trkpt><trkpt lat="55.70362828730809" lon="12.589307999502765"><ele>8.5</ele><time>2026-04-27T09:44:15Z</time></trkpt><trkpt lat="55.70364898896271" lon="12.58941675779896"><ele>9.0</ele><time>2026-04-27T09:44:17Z</time></trkpt><trkpt lat="55.703673608607915" lon="12.5895812116585"><ele>9.5</ele><time>2026-04-27T09:44:20Z</time></trkpt><trkpt lat="55.70368050444716" lon="12.589701169503696"><ele>10.0</ele><time>2026-04-27T09:44:22Z</time></trkpt><trkpt lat="55.70370158815275" lon="12.589814063458771"><ele>10.5</ele><time>2026-04-27T09:44:24Z</time></trkpt><trkpt lat="55.703718243659196" lon="12.589984245090038"><ele>11.0</ele><time>2026-04-27T09:44:27Z</time></trkpt><trkpt lat="55.70373873570173" lon="12.590144263399072"><ele>11.0</ele><time>2026-04-27T09:44:30Z</time></trkpt><trkpt lat="55.703756332746906" lon="12.590269926098124"><ele>11.0</ele><time>2026-04-27T09:44:33Z</time></trkpt><trkpt lat="55.703771564827896" lon="12.59038291763062"><ele>11.0</ele><time>2026-04-27T09:44:35Z</time></trkpt><trkpt lat="55.70378616064437" lon="12.590541891879392"><ele>11.0</ele><time>2026-04-27T09:44:38Z</time></trkpt><trkpt lat="55.70379516567465" lon="12.590657190263963"><ele>11.0</ele><time>2026-04-27T09:44:41Z</time></trkpt><trkpt lat="55.703786263973356" lon="12.59078109598661"><ele>11.0</ele><time>2026-04-27T09:44:44Z</time></trkpt><trkpt lat="55.70371476685644" lon="12.590839041868513"><ele>11.0</ele><time>2026-04-27T09:44:57Z</time></trkpt><trkpt lat="55.70374543286959" lon="12.59096427864447"><ele>10.200000000000001</ele><time>2026-04-27T09:45:02Z</time></trkpt><trkpt lat="55.703755244374655" lon="12.591084580972407"><ele>9.4</ele><time>2026-04-27T09:45:06Z</time></trkpt><trkpt lat="55.703714218487455" lon="12.591205477168245"><ele>8.6</ele><time>2026-04-27T09:45:12Z</time></trkpt><trkpt lat="55.7037681090803" lon="12.591456047296422"><ele>7.8</ele><time>2026-04-27T09:45:17Z</time></trkpt><trkpt lat="55.70371856610002" lon="12.59156635685302"><ele>7.0</ele><time>2026-04-27T09:45:18Z</time></trkpt><trkpt lat="55.70363254694297" lon="12.591562860519051"><ele>6.333333333333334</ele><time>2026-04-27T09:45:21Z</time></trkpt><trkpt lat="55.703625468193316" lon="12.591733111175794"><ele>5.666666666666667</ele><time>2026-04-27T09:45:22Z</time></trkpt><trkpt lat="55.70358569228791" lon="12.591850606419326"><ele>5.0</ele><time>2026-04-27T09:45:24Z</time></trkpt><trkpt lat="55.7035213560207" lon="12.5918934933193"><ele>4.333333333333334</ele><time>2026-04-27T09:45:27Z</time></trkpt><trkpt lat="55.70344326550525" lon="12.59189127948476"><ele>3.666666666666667</ele><time>2026-04-27T09:45:30Z</time></trkpt><trkpt lat="55.70337684992526" lon="12.591905606695565"><ele>3.0</ele><time>2026-04-27T09:45:33.001Z</time></trkpt><trkpt lat="55.703305404718826" lon="12.591921030803306"><ele>2.8571428571428568</ele><time>2026-04-27T09:45:36.001Z</time></trkpt><trkpt lat="55.70332039400171" lon="12.592039889333247"><ele>2.7142857142857144</ele><time>2026-04-27T09:46:08Z</time></trkpt><trkpt lat="55.70330886320927" lon="12.592172558778506"><ele>2.571428571428571</ele><time>2026-04-27T09:46:11Z</time></trkpt><trkpt lat="55.70334972595282" lon="12.592317806175462"><ele>2.4285714285714284</ele><time>2026-04-27T09:46:15Z</time></trkpt><trkpt lat="55.70334246229442" lon="12.592447452388496"><ele>2.2857142857142856</ele><time>2026-04-27T09:46:19Z</time></trkpt><trkpt lat="55.70335932553786" lon="12.592563377223135"><ele>2.142857142857143</ele><time>2026-04-27T09:46:21Z</time></trkpt><trkpt lat="55.703363798920115" lon="12.592676248275756"><ele>2.0</ele><time>2026-04-27T09:46:23Z</time></trkpt><trkpt lat="55.70339640556875" lon="12.592802166098668"><ele>1.9999999999999998</ele><time>2026-04-27T09:46:26Z</time></trkpt><trkpt lat="55.70339887416933" lon="12.592926682992152"><ele>2.0</ele><time>2026-04-27T09:46:28Z</time></trkpt><trkpt lat="55.703385634719176" lon="12.593068060105626"><ele>2.0</ele><time>2026-04-27T09:46:31Z</time></trkpt><trkpt lat="55.70338542474328" lon="12.593224824111127"><ele>2.0</ele><time>2026-04-27T09:46:34Z</time></trkpt><trkpt lat="55.70338239003407" lon="12.593366694753168"><ele>1.9999999999999998</ele><time>2026-04-27T09:46:37Z</time></trkpt><trkpt lat="55.70338252809502" lon="12.593510146696275"><ele>2.0</ele><time>2026-04-27T09:46:40Z</time></trkpt><trkpt lat="55.70341458646515" lon="12.593615749718637"><ele>1.9999999999999998</ele><time>2026-04-27T09:46:44Z</time></trkpt><trkpt lat="55.70338066623272" lon="12.593496295591766"><ele>2.0</ele><time>2026-04-27T09:47:11Z</time></trkpt><trkpt lat="55.70335504243808" lon="12.59337224909894"><ele>2.0</ele><time>2026-04-27T09:47:14Z</time></trkpt><trkpt lat="55.70332840505092" lon="12.593226357391808"><ele>2.0</ele><time>2026-04-27T09:47:17Z</time></trkpt><trkpt lat="55.703320157006644" lon="12.593082285770311"><ele>1.9999999999999998</ele><time>2026-04-27T09:47:20Z</time></trkpt><trkpt lat="55.703301445060845" lon="12.592972049764885"><ele>2.0</ele><time>2026-04-27T09:47:22Z</time></trkpt><trkpt lat="55.7032896587309" lon="12.592836844407163"><ele>2.0</ele><time>2026-04-27T09:47:24Z</time></trkpt><trkpt lat="55.703298269581175" lon="12.59272382986316"><ele>1.9999999999999998</ele><time>2026-04-27T09:47:26Z</time></trkpt><trkpt lat="55.70327136552774" lon="12.5926094665964"><ele>2.0</ele><time>2026-04-27T09:47:30Z</time></trkpt><trkpt lat="55.70333070168563" lon="12.59257079533412"><ele>2.0</ele><time>2026-04-27T09:48:00.001Z</time></trkpt><trkpt lat="55.703377796588406" lon="12.59246842278341"><ele>1.9999999999999998</ele><time>2026-04-27T09:48:36Z</time></trkpt><trkpt lat="55.7034397971733" lon="12.592442564756453"><ele>2.0</ele><time>2026-04-27T09:48:39Z</time></trkpt><trkpt lat="55.70350301790061" lon="12.592341034840853"><ele>2.0</ele><time>2026-04-27T09:48:43Z</time></trkpt><trkpt lat="55.703562482840454" lon="12.592279934783072"><ele>1.8333333333333333</ele><time>2026-04-27T09:48:46Z</time></trkpt><trkpt lat="55.70364730275652" lon="12.59228429842165"><ele>1.6666666666666665</ele><time>2026-04-27T09:48:49Z</time></trkpt><trkpt lat="55.70372369526455" lon="12.592246946646727"><ele>1.5</ele><time>2026-04-27T09:48:52Z</time></trkpt><trkpt lat="55.70379218607089" lon="12.592242615455943"><ele>1.3333333333333333</ele><time>2026-04-27T09:48:54Z</time></trkpt><trkpt lat="55.70388617113733" lon="12.592196488668849"><ele>1.1666666666666665</ele><time>2026-04-27T09:48:57Z</time></trkpt><trkpt lat="55.70395143696841" lon="12.592177086499929"><ele>1.0</ele><time>2026-04-27T09:48:59Z</time></trkpt><trkpt lat="55.70401560172505" lon="12.592151087007233"><ele>0.9999999999999999</ele><time>2026-04-27T09:49:01Z</time></trkpt><trkpt lat="55.70408650622295" lon="12.59215487666133"><ele>1.0</ele><time>2026-04-27T09:49:03Z</time></trkpt><trkpt lat="55.7041549425461" lon="12.592096243369218"><ele>1.0</ele><time>2026-04-27T09:49:05Z</time></trkpt><trkpt lat="55.704254360498666" lon="12.592061231710026"><ele>1.0</ele><time>2026-04-27T09:49:08Z</time></trkpt><trkpt lat="55.70435452164299" lon="12.592049338923376"><ele>0.9999999999999999</ele><time>2026-04-27T09:49:11Z</time></trkpt><trkpt lat="55.70441966176331" lon="12.592012399920804"><ele>1.0</ele><time>2026-04-27T09:49:13Z</time></trkpt><trkpt lat="55.704489277482566" lon="12.59199454420884"><ele>1.2857142857142856</ele><time>2026-04-27T09:49:15Z</time></trkpt><trkpt lat="55.704559316937186" lon="12.591986225760474"><ele>1.5714285714285712</ele><time>2026-04-27T09:49:17Z</time></trkpt><trkpt lat="55.70463113378908" lon="12.591961449887599"><ele>1.857142857142857</ele><time>2026-04-27T09:49:19Z</time></trkpt><trkpt lat="55.70469618555407" lon="12.591936289682367"><ele>2.142857142857143</ele><time>2026-04-27T09:49:21Z</time></trkpt><trkpt lat="55.70476215324053" lon="12.591903445937971"><ele>2.4285714285714284</ele><time>2026-04-27T09:49:23Z</time></trkpt><trkpt lat="55.7048316593389" lon="12.591880656260962"><ele>2.714285714285714</ele><time>2026-04-27T09:49:25Z</time></trkpt><trkpt lat="55.7049049454613" lon="12.591864222774975"><ele>3.0</ele><time>2026-04-27T09:49:27Z</time></trkpt><trkpt lat="55.7049748806001" lon="12.591842219065127"><ele>2.9999999999999996</ele><time>2026-04-27T09:49:29Z</time></trkpt><trkpt lat="55.70504706097436" lon="12.591826691491288"><ele>3.0</ele><time>2026-04-27T09:49:31Z</time></trkpt><trkpt lat="55.705118127084425" lon="12.591808683165105"><ele>3.0</ele><time>2026-04-27T09:49:33Z</time></trkpt><trkpt lat="55.705192497869945" lon="12.591784797617153"><ele>3.0</ele><time>2026-04-27T09:49:35Z</time></trkpt><trkpt lat="55.70526640755561" lon="12.591771926785999"><ele>3.0</ele><time>2026-04-27T09:49:37Z</time></trkpt><trkpt lat="55.705341148443" lon="12.591747521834566"><ele>2.9999999999999996</ele><time>2026-04-27T09:49:39Z</time></trkpt><trkpt lat="55.705413586984754" lon="12.591724509036533"><ele>3.0</ele><time>2026-04-27T09:49:41Z</time></trkpt><trkpt lat="55.705492727205" lon="12.591699798741368"><ele>2.8333333333333335</ele><time>2026-04-27T09:49:43Z</time></trkpt><trkpt lat="55.70557265679338" lon="12.59167414382432"><ele>2.6666666666666665</ele><time>2026-04-27T09:49:45Z</time></trkpt><trkpt lat="55.70564818502059" lon="12.59165388873327"><ele>2.5</ele><time>2026-04-27T09:49:47Z</time></trkpt><trkpt lat="55.70571848903553" lon="12.5916294800378"><ele>2.333333333333333</ele><time>2026-04-27T09:49:49Z</time></trkpt><trkpt lat="55.70580109359554" lon="12.591606265882332"><ele>2.1666666666666665</ele><time>2026-04-27T09:49:51Z</time></trkpt><trkpt lat="55.705880358231546" lon="12.591585186814227"><ele>2.0</ele><time>2026-04-27T09:49:53.001Z</time></trkpt><trkpt lat="55.70596041166125" lon="12.591559255662755"><ele>2.0</ele><time>2026-04-27T09:49:55.001Z</time></trkpt><trkpt lat="55.70602302910743" lon="12.591537142124944"><ele>1.9999999999999998</ele><time>2026-04-27T09:49:57.001Z</time></trkpt><trkpt lat="55.70608158026909" lon="12.59160357960683"><ele>2.0</ele><time>2026-04-27T09:50:00.001Z</time></trkpt><trkpt lat="55.70604414726338" lon="12.591735979061367"><ele>2.0</ele><time>2026-04-27T09:50:03.001Z</time></trkpt><trkpt lat="55.706015982535035" lon="12.591840006124869"><ele>1.9999999999999998</ele><time>2026-04-27T09:50:05.001Z</time></trkpt><trkpt lat="55.70602292126855" lon="12.591956684816"><ele>2.0</ele><time>2026-04-27T09:50:08.001Z</time></trkpt><trkpt lat="55.70605084120614" lon="12.592091122304105"><ele>2.0</ele><time>2026-04-27T09:50:11.999Z</time></trkpt><trkpt lat="55.706069615891444" lon="12.592204788404006"><ele>2.142857142857143</ele><time>2026-04-27T09:50:15Z</time></trkpt><trkpt lat="55.70608703190312" lon="12.592318428792685"><ele>2.2857142857142856</ele><time>2026-04-27T09:50:18Z</time></trkpt><trkpt lat="55.70609579109474" lon="12.592452930502063"><ele>2.4285714285714284</ele><time>2026-04-27T09:50:21Z</time></trkpt><trkpt lat="55.70611065628587" lon="12.592616495866293"><ele>2.571428571428571</ele><time>2026-04-27T09:50:24Z</time></trkpt><trkpt lat="55.70612370024889" lon="12.592728061074908"><ele>2.7142857142857144</ele><time>2026-04-27T09:50:26Z</time></trkpt><trkpt lat="55.70614273667035" lon="12.5928372460868"><ele>2.8571428571428568</ele><time>2026-04-27T09:50:28Z</time></trkpt><trkpt lat="55.70615641749452" lon="12.592957051660623"><ele>3.0</ele><time>2026-04-27T09:50:30Z</time></trkpt><trkpt lat="55.706162915379984" lon="12.593070535604642"><ele>3.0</ele><time>2026-04-27T09:50:32Z</time></trkpt><trkpt lat="55.70618841431902" lon="12.593214447112116"><ele>3.0</ele><time>2026-04-27T09:50:35Z</time></trkpt><trkpt lat="55.706194911862006" lon="12.593372702335756"><ele>3.0</ele><time>2026-04-27T09:50:38Z</time></trkpt><trkpt lat="55.706202520418124" lon="12.593536262564685"><ele>3.0</ele><time>2026-04-27T09:50:41Z</time></trkpt><trkpt lat="55.70622712624029" lon="12.593692340001287"><ele>3.0</ele><time>2026-04-27T09:50:44Z</time></trkpt><trkpt lat="55.706246510090104" lon="12.593803967283945"><ele>3.0</ele><time>2026-04-27T09:50:46Z</time></trkpt><trkpt lat="55.70627874709812" lon="12.593909005463614"><ele>3.0</ele><time>2026-04-27T09:50:49Z</time></trkpt><trkpt lat="55.70628775400139" lon="12.594061390801231"><ele>3.0</ele><time>2026-04-27T09:50:51Z</time></trkpt><trkpt lat="55.70630234741542" lon="12.594224760629965"><ele>3.0</ele><time>2026-04-27T09:50:54Z</time></trkpt><trkpt lat="55.70630618924923" lon="12.59434913664041"><ele>3.0</ele><time>2026-04-27T09:50:56Z</time></trkpt><trkpt lat="55.70631949962096" lon="12.594460191841556"><ele>3.0</ele><time>2026-04-27T09:50:58Z</time></trkpt><trkpt lat="55.70633982395364" lon="12.594631993307514"><ele>3.0</ele><time>2026-04-27T09:51:01Z</time></trkpt><trkpt lat="55.70634879413181" lon="12.594792495143619"><ele>2.6666666666666665</ele><time>2026-04-27T09:51:04Z</time></trkpt><trkpt lat="55.706345282236036" lon="12.594946506858639"><ele>2.3333333333333335</ele><time>2026-04-27T09:51:08Z</time></trkpt><trkpt lat="55.70635040353749" lon="12.595071318106264"><ele>2.0</ele><time>2026-04-27T09:51:11Z</time></trkpt><trkpt lat="55.706388476262994" lon="12.595203250340575"><ele>1.6666666666666665</ele><time>2026-04-27T09:51:14Z</time></trkpt><trkpt lat="55.70642484168516" lon="12.595356777018331"><ele>1.3333333333333333</ele><time>2026-04-27T09:51:17Z</time></trkpt><trkpt lat="55.706435632484556" lon="12.595492758333561"><ele>1.0</ele><time>2026-04-27T09:51:20Z</time></trkpt><trkpt lat="55.706450598747104" lon="12.595622541895887"><ele>0.9999999999999999</ele><time>2026-04-27T09:51:23Z</time></trkpt><trkpt lat="55.706473879991606" lon="12.595772210409885"><ele>1.0</ele><time>2026-04-27T09:51:26Z</time></trkpt><trkpt lat="55.70648083225941" lon="12.59592818746217"><ele>1.0</ele><time>2026-04-27T09:51:29Z</time></trkpt><trkpt lat="55.70650360047677" lon="12.596063620833858"><ele>1.0</ele><time>2026-04-27T09:51:32Z</time></trkpt><trkpt lat="55.706513088096436" lon="12.596186854951714"><ele>0.9999999999999999</ele><time>2026-04-27T09:51:35Z</time></trkpt><trkpt lat="55.70653964241082" lon="12.596323255130326"><ele>1.0</ele><time>2026-04-27T09:51:38Z</time></trkpt><trkpt lat="55.70656746510619" lon="12.596445616716462"><ele>1.5</ele><time>2026-04-27T09:51:41Z</time></trkpt><trkpt lat="55.70657372256802" lon="12.59657044495021"><ele>2.0</ele><time>2026-04-27T09:51:44Z</time></trkpt><trkpt lat="55.706607345790715" lon="12.596679176187331"><ele>2.5</ele><time>2026-04-27T09:51:47Z</time></trkpt><trkpt lat="55.706613770185854" lon="12.596838576867375"><ele>3.0</ele><time>2026-04-27T09:51:50Z</time></trkpt><trkpt lat="55.70660960386997" lon="12.596983468605686"><ele>3.4999999999999996</ele><time>2026-04-27T09:51:53Z</time></trkpt><trkpt lat="55.70661974909826" lon="12.597149096490849"><ele>4.0</ele><time>2026-04-27T09:51:56.001Z</time></trkpt><trkpt lat="55.7066184633922" lon="12.597283693699545"><ele>4.0</ele><time>2026-04-27T09:51:59.001Z</time></trkpt><trkpt lat="55.7066196040242" lon="12.597396240560087"><ele>3.9999999999999996</ele><time>2026-04-27T09:52:02.001Z</time></trkpt><trkpt lat="55.70661789711624" lon="12.597566405372644"><ele>4.0</ele><time>2026-04-27T09:52:06.001Z</time></trkpt><trkpt lat="55.706588459561544" lon="12.5976769294332"><ele>4.0</ele><time>2026-04-27T09:52:46Z</time></trkpt><trkpt lat="55.70660599497425" lon="12.5978003519401"><ele>3.9999999999999996</ele><time>2026-04-27T09:52:51Z</time></trkpt><trkpt lat="55.70663011970248" lon="12.597917356282887"><ele>4.0</ele><time>2026-04-27T09:52:54Z</time></trkpt><trkpt lat="55.70664872323967" lon="12.598028638479832"><ele>4.0</ele><time>2026-04-27T09:52:56Z</time></trkpt><trkpt lat="55.7066834741537" lon="12.598162956988043"><ele>3.833333333333333</ele><time>2026-04-27T09:52:59Z</time></trkpt><trkpt lat="55.70669298956056" lon="12.59832053888974"><ele>3.6666666666666665</ele><time>2026-04-27T09:53:02Z</time></trkpt><trkpt lat="55.7067036104503" lon="12.59846710438872"><ele>3.5</ele><time>2026-04-27T09:53:05Z</time></trkpt><trkpt lat="55.70670934918133" lon="12.598602729367109"><ele>3.333333333333333</ele><time>2026-04-27T09:53:08Z</time></trkpt><trkpt lat="55.7067512419383" lon="12.598731156248013"><ele>3.1666666666666665</ele><time>2026-04-27T09:53:11Z</time></trkpt><trkpt lat="55.70677752489917" lon="12.598848489366855"><ele>3.0</ele><time>2026-04-27T09:53:14Z</time></trkpt><trkpt lat="55.70683970143932" lon="12.598910046749907"><ele>3.0</ele><time>2026-04-27T09:53:17Z</time></trkpt><trkpt lat="55.70691444668291" lon="12.598977280269345"><ele>3.0</ele><time>2026-04-27T09:53:21Z</time></trkpt><trkpt lat="55.706926065264625" lon="12.599114094534873"><ele>3.0</ele><time>2026-04-27T09:53:26Z</time></trkpt><trkpt lat="55.70692314377298" lon="12.599249149600048"><ele>3.0</ele><time>2026-04-27T09:53:30.001Z</time></trkpt><trkpt lat="55.706890068574694" lon="12.599363573894163"><ele>3.0</ele><time>2026-04-27T09:53:33.001Z</time></trkpt><trkpt lat="55.70687911687439" lon="12.599516588173648"><ele>3.0</ele><time>2026-04-27T09:53:36.001Z</time></trkpt><trkpt lat="55.70685255518155" lon="12.599619214413837"><ele>3.1666666666666665</ele><time>2026-04-27T09:53:39.001Z</time></trkpt><trkpt lat="55.70683328286713" lon="12.599743140845009"><ele>3.333333333333333</ele><time>2026-04-27T09:53:42.001Z</time></trkpt><trkpt lat="55.70680518150475" lon="12.599866358162663"><ele>3.5</ele><time>2026-04-27T09:53:45.001Z</time></trkpt><trkpt lat="55.70678157355555" lon="12.600012954674698"><ele>3.6666666666666665</ele><time>2026-04-27T09:53:48.001Z</time></trkpt><trkpt lat="55.70675440937519" lon="12.600164648606974"><ele>3.833333333333333</ele><time>2026-04-27T09:53:51.001Z</time></trkpt><trkpt lat="55.70674033610901" lon="12.600284144500021"><ele>4.0</ele><time>2026-04-27T09:53:55.001Z</time></trkpt><trkpt lat="55.706706986897466" lon="12.600387161881761"><ele>4.166666666666666</ele><time>2026-04-27T09:54:01.001Z</time></trkpt><trkpt lat="55.706683775169836" lon="12.60049534454141"><ele>4.333333333333333</ele><time>2026-04-27T09:54:05.001Z</time></trkpt><trkpt lat="55.70665953012696" lon="12.600623129340871"><ele>4.5</ele><time>2026-04-27T09:54:10.001Z</time></trkpt><trkpt lat="55.70664275945185" lon="12.600748440610564"><ele>4.666666666666667</ele><time>2026-04-27T09:54:14.001Z</time></trkpt><trkpt lat="55.706618644358144" lon="12.600889401566189"><ele>4.833333333333334</ele><time>2026-04-27T09:54:18.001Z</time></trkpt><trkpt lat="55.706601565017145" lon="12.601018115473838"><ele>5.0</ele><time>2026-04-27T09:54:21.001Z</time></trkpt><trkpt lat="55.70658295268313" lon="12.60115938339218"><ele>4.833333333333334</ele><time>2026-04-27T09:54:24Z</time></trkpt><trkpt lat="55.70656967642279" lon="12.601311746466362"><ele>4.666666666666667</ele><time>2026-04-27T09:54:27Z</time></trkpt><trkpt lat="55.706541782784534" lon="12.60145176423816"><ele>4.5</ele><time>2026-04-27T09:54:30Z</time></trkpt><trkpt lat="55.7065346072172" lon="12.601567914344871"><ele>4.333333333333333</ele><time>2026-04-27T09:54:32Z</time></trkpt><trkpt lat="55.706502010819285" lon="12.601706686045405"><ele>4.166666666666666</ele><time>2026-04-27T09:54:35Z</time></trkpt><trkpt lat="55.70646398208163" lon="12.601842913638299"><ele>4.0</ele><time>2026-04-27T09:54:38Z</time></trkpt><trkpt lat="55.7064354255801" lon="12.601972637323769"><ele>3.714285714285714</ele><time>2026-04-27T09:54:41Z</time></trkpt><trkpt lat="55.706408475309736" lon="12.602100050025834"><ele>3.428571428571428</ele><time>2026-04-27T09:54:44Z</time></trkpt><trkpt lat="55.706400160108664" lon="12.602233913252832"><ele>3.142857142857143</ele><time>2026-04-27T09:54:48Z</time></trkpt><trkpt lat="55.7063709188843" lon="12.602347376051153"><ele>2.8571428571428568</ele><time>2026-04-27T09:54:51Z</time></trkpt><trkpt lat="55.706359423587315" lon="12.602459355331764"><ele>2.571428571428571</ele><time>2026-04-27T09:54:54Z</time></trkpt><trkpt lat="55.706352091794" lon="12.60257173765846"><ele>2.2857142857142856</ele><time>2026-04-27T09:54:57Z</time></trkpt><trkpt lat="55.706395804584766" lon="12.602662331398452"><ele>2.0</ele><time>2026-04-27T09:55:01Z</time></trkpt><trkpt lat="55.70646074407749" lon="12.602708940205957"><ele>1.9999999999999998</ele><time>2026-04-27T09:55:24.001Z</time></trkpt><trkpt lat="55.70653208857681" lon="12.602704442075211"><ele>2.0</ele><time>2026-04-27T09:55:30.001Z</time></trkpt><trkpt lat="55.706597894316396" lon="12.602709911773612"><ele>2.0</ele><time>2026-04-27T09:55:34.001Z</time></trkpt><trkpt lat="55.70667764820016" lon="12.602671001498845"><ele>2.0</ele><time>2026-04-27T09:55:38.001Z</time></trkpt><trkpt lat="55.70674613616375" lon="12.602595872791845"><ele>1.9999999999999998</ele><time>2026-04-27T09:55:42.001Z</time></trkpt><trkpt lat="55.706807817862455" lon="12.602532839913094"><ele>2.0</ele><time>2026-04-27T09:55:45.001Z</time></trkpt><trkpt lat="55.70688057475696" lon="12.602458490339005"><ele>1.9999999999999998</ele><time>2026-04-27T09:55:48.001Z</time></trkpt><trkpt lat="55.70694644582255" lon="12.602399140561456"><ele>2.0</ele><time>2026-04-27T09:55:51.001Z</time></trkpt><trkpt lat="55.70701676642272" lon="12.602316270884549"><ele>2.0</ele><time>2026-04-27T09:55:54.001Z</time></trkpt><trkpt lat="55.70706489315329" lon="12.602228244739255"><ele>2.0</ele><time>2026-04-27T09:55:57.001Z</time></trkpt><trkpt lat="55.70710925473108" lon="12.602112310716468"><ele>1.9999999999999998</ele><time>2026-04-27T09:56:01.001Z</time></trkpt><trkpt lat="55.70717547082732" lon="12.602037369052013"><ele>2.0</ele><time>2026-04-27T09:56:04.001Z</time></trkpt><trkpt lat="55.70721248153823" lon="12.601923863840359"><ele>2.0</ele><time>2026-04-27T09:56:07.001Z</time></trkpt><trkpt lat="55.707228080845155" lon="12.60180661745015"><ele>1.9999999999999998</ele><time>2026-04-27T09:56:10.001Z</time></trkpt><trkpt lat="55.70726234422956" lon="12.601703976738968"><ele>2.0</ele><time>2026-04-27T09:56:14.001Z</time></trkpt><trkpt lat="55.70727676678222" lon="12.601593434165236"><ele>2.0</ele><time>2026-04-27T09:56:18.001Z</time></trkpt><trkpt lat="55.707302956924636" lon="12.601467719407397"><ele>1.9999999999999998</ele><time>2026-04-27T09:56:22.001Z</time></trkpt><trkpt lat="55.70732049943175" lon="12.60134599579005"><ele>2.0</ele><time>2026-04-27T09:56:25.001Z</time></trkpt><trkpt lat="55.707331747579666" lon="12.601222601630344"><ele>2.0</ele><time>2026-04-27T09:56:28.001Z</time></trkpt><trkpt lat="55.70736594060815" lon="12.601091499311854"><ele>2.0</ele><time>2026-04-27T09:56:31.001Z</time></trkpt><trkpt lat="55.70738017767564" lon="12.600971869505907"><ele>2.0</ele><time>2026-04-27T09:56:34.001Z</time></trkpt><trkpt lat="55.70740284149448" lon="12.600846796663436"><ele>2.0</ele><time>2026-04-27T09:56:37.001Z</time></trkpt><trkpt lat="55.70741862471261" lon="12.600713233902153"><ele>2.0</ele><time>2026-04-27T09:56:41.001Z</time></trkpt><trkpt lat="55.707381677730204" lon="12.600609878407637"><ele>2.0</ele><time>2026-04-27T09:56:45.001Z</time></trkpt><trkpt lat="55.70730960900076" lon="12.600589092623173"><ele>2.0</ele><time>2026-04-27T09:56:49.001Z</time></trkpt></trkseg></trk></gpx>